Observation data for Amarillo 9 North Northeast on 05/24/2020      Previous  Date  Next       Current Mesonet Observations  Soil Data  Daily Summary Page  Observations in Plain Language
KAM2 240500Z 15016G23KT 20/10 A2979 RMK A01 T02020095  RH  050%=      5-min Rain = 0
KAM2 240501Z 15016KT 20/10 A2979 RMK A01 T02020095  RH  050%=      5-min Rain = 0
KAM2 240502Z 15016KT 20/10 A2978 RMK A01 T02020096  RH  050%=      5-min Rain = 0
KAM2 240503Z 15017KT 20/10 A2978 RMK A01 T02020095  RH  050%=      5-min Rain = 0
KAM2 240504Z 15014KT 20/10 A2978 RMK A01 T02020096  RH  050%=      5-min Rain = 0
KAM2 240505Z 16014KT 20/10 A2978 RMK A01 T02010096  RH  051%=      5-min Rain = 0
KAM2 240506Z 15014KT 20/10 A2978 RMK A01 T02010096  RH  051%=      5-min Rain = 0
KAM2 240507Z 16014KT 20/10 A2978 RMK A01 T02000096  RH  051%=      5-min Rain = 0
KAM2 240508Z 16016KT 20/10 A2978 RMK A01 T02000096  RH  051%=      5-min Rain = 0
KAM2 240509Z 15013KT 20/10 A2978 RMK A01 T02000096  RH  051%=      5-min Rain = 0
KAM2 240510Z 16014G19KT 20/10 A2978 RMK A01 T02000097  RH  051%=      5-min Rain = 0
KAM2 240511Z 16015KT 20/10 A2979 RMK A01 T01990097  RH  052%=      5-min Rain = 0
KAM2 240512Z 16015KT 20/10 A2979 RMK A01 T01990097  RH  052%=      5-min Rain = 0
KAM2 240513Z 16013KT 20/10 A2979 RMK A01 T01990097  RH  052%=      5-min Rain = 0
KAM2 240514Z 16013G19KT 20/10 A2979 RMK A01 T01980097  RH  052%=      5-min Rain = 0
KAM2 240515Z 15014KT 20/10 A2978 RMK A01 T01980097  RH  052%=      5-min Rain = 0
KAM2 240516Z 16017KT 20/10 A2978 RMK A01 T01980097  RH  052%=      5-min Rain = 0
KAM2 240517Z 15014G19KT 20/10 A2978 RMK A01 T01980097  RH  052%=      5-min Rain = 0
KAM2 240518Z 15017KT 20/10 A2978 RMK A01 T01980097  RH  052%=      5-min Rain = 0
KAM2 240519Z 15016G22KT 20/10 A2978 RMK A01 T01980098  RH  052%=      5-min Rain = 0
KAM2 240520Z 16016KT 20/10 A2978 RMK A01 T01970098  RH  053%=      5-min Rain = 0
KAM2 240521Z 15015KT 20/10 A2978 RMK A01 T01980099  RH  053%=      5-min Rain = 0
KAM2 240522Z 15017KT 20/10 A2978 RMK A01 T01980099  RH  053%=      5-min Rain = 0
KAM2 240523Z 15015KT 20/10 A2978 RMK A01 T01980099  RH  053%=      5-min Rain = 0
KAM2 240524Z 15015KT 20/10 A2978 RMK A01 T01970099  RH  053%=      5-min Rain = 0
KAM2 240525Z 15015KT 20/10 A2978 RMK A01 T01970099  RH  053%=      5-min Rain = 0
KAM2 240526Z 15014KT 20/10 A2978 RMK A01 T01970099  RH  053%=      5-min Rain = 0
KAM2 240527Z 15014KT 20/10 A2978 RMK A01 T01970099  RH  053%=      5-min Rain = 0
KAM2 240528Z 15015KT 20/10 A2978 RMK A01 T01960100  RH  053%=      5-min Rain = 0
KAM2 240529Z 15014G19KT 20/10 A2978 RMK A01 T01960100  RH  054%=      5-min Rain = 0
KAM2 240530Z 15016G21KT 20/10 A2978 RMK A01 T01960100  RH  054%=      5-min Rain = 0
KAM2 240531Z 16015KT 20/10 A2978 RMK A01 T01950100  RH  054%=      5-min Rain = 0
KAM2 240532Z 15014KT 20/10 A2978 RMK A01 T01950100  RH  054%=      5-min Rain = 0
KAM2 240533Z 16016KT 20/10 A2978 RMK A01 T01950100  RH  054%=      5-min Rain = 0
KAM2 240534Z 16015KT 20/10 A2978 RMK A01 T01950100  RH  054%=      5-min Rain = 0
KAM2 240535Z 15017KT 19/10 A2978 RMK A01 T01940101  RH  055%=      5-min Rain = 0
KAM2 240536Z 15015KT 19/10 A2978 RMK A01 T01940101  RH  055%=      5-min Rain = 0
KAM2 240537Z 15014KT 19/10 A2978 RMK A01 T01940101  RH  055%=      5-min Rain = 0
KAM2 240538Z 16015KT 19/10 A2978 RMK A01 T01930101  RH  055%=      5-min Rain = 0
KAM2 240539Z 15013KT 19/10 A2978 RMK A01 T01930101  RH  055%=      5-min Rain = 0
KAM2 240540Z 16015KT 19/10 A2978 RMK A01 T01930101  RH  055%=      5-min Rain = 0
KAM2 240541Z 16014KT 19/10 A2978 RMK A01 T01920101  RH  056%=      5-min Rain = 0
KAM2 240542Z 16013G19KT 19/10 A2978 RMK A01 T01920101  RH  056%=      5-min Rain = 0
KAM2 240543Z 16012G17KT 19/10 A2978 RMK A01 T01910101  RH  056%=      5-min Rain = 0
KAM2 240544Z 16013KT 19/10 A2978 RMK A01 T01910101  RH  056%=      5-min Rain = 0
KAM2 240545Z 16016KT 19/10 A2978 RMK A01 T01910101  RH  056%=      5-min Rain = 0
KAM2 240546Z 16016KT 19/10 A2978 RMK A01 T01910101  RH  056%=      5-min Rain = 0
KAM2 240547Z 16014KT 19/10 A2978 RMK A01 T01910100  RH  056%=      5-min Rain = 0
KAM2 240548Z 17013KT 19/10 A2978 RMK A01 T01910101  RH  056%=      5-min Rain = 0
KAM2 240549Z 16014KT 19/10 A2978 RMK A01 T01910101  RH  056%=      5-min Rain = 0
KAM2 240550Z 16017KT 19/10 A2978 RMK A01 T01910101  RH  056%=      5-min Rain = 0
KAM2 240551Z 16019KT 19/10 A2978 RMK A01 T01910101  RH  056%=      5-min Rain = 0
KAM2 240552Z 16016KT 19/10 A2978 RMK A01 T01900102  RH  056%=      5-min Rain = 0
KAM2 240553Z 16015KT 19/10 A2978 RMK A01 T01900102  RH  056%=      5-min Rain = 0
KAM2 240554Z 16016KT 19/10 A2978 RMK A01 T01900102  RH  057%=      5-min Rain = 0
KAM2 240555Z 16014KT 19/10 A2978 RMK A01 T01890102  RH  057%=      5-min Rain = 0
KAM2 240556Z 16015KT 19/10 A2978 RMK A01 T01890102  RH  057%=      5-min Rain = 0
KAM2 240557Z 16014G23KT 19/10 A2978 RMK A01 T01890102  RH  057%=      5-min Rain = 0
KAM2 240558Z 16014KT 19/10 A2978 RMK A01 T01880102  RH  057%=      5-min Rain = 0
KAM2 240559Z 16015KT 19/10 A2978 RMK A01 T01890102  RH  057%=      5-min Rain = 0
KAM2 240600Z 16017KT 19/10 A2978 RMK A01 T01880102  RH  057%=      5-min Rain = 0
KAM2 240601Z 16015KT 19/10 A2978 RMK A01 T01890102  RH  057%=      5-min Rain = 0
KAM2 240602Z 16013KT 19/10 A2978 RMK A01 T01880101  RH  057%=      5-min Rain = 0
KAM2 240603Z 16014KT 19/10 A2978 RMK A01 T01890102  RH  057%=      5-min Rain = 0
KAM2 240604Z 16015KT 19/10 A2979 RMK A01 T01890102  RH  057%=      5-min Rain = 0
KAM2 240605Z 16014KT 19/10 A2979 RMK A01 T01890101  RH  057%=      5-min Rain = 0
KAM2 240606Z 16015KT 19/10 A2978 RMK A01 T01890101  RH  057%=      5-min Rain = 0
KAM2 240607Z 16015G21KT 19/10 A2978 RMK A01 T01880100  RH  056%=      5-min Rain = 0
KAM2 240608Z 16016KT 19/10 A2979 RMK A01 T01890100  RH  056%=      5-min Rain = 0
KAM2 240609Z 16014KT 19/10 A2978 RMK A01 T01890100  RH  056%=      5-min Rain = 0
KAM2 240610Z 16016G21KT 19/10 A2978 RMK A01 T01890100  RH  056%=      5-min Rain = 0
KAM2 240611Z 16016KT 19/10 A2978 RMK A01 T01890100  RH  056%=      5-min Rain = 0
KAM2 240612Z 16016G22KT 19/10 A2978 RMK A01 T01890099  RH  056%=      5-min Rain = 0
KAM2 240613Z 16015KT 19/10 A2978 RMK A01 T01900099  RH  056%=      5-min Rain = 0
KAM2 240614Z 16020KT 19/10 A2978 RMK A01 T01900099  RH  056%=      5-min Rain = 0
KAM2 240615Z 16018KT 19/10 A2978 RMK A01 T01910099  RH  055%=      5-min Rain = 0
KAM2 240616Z 16014KT 19/10 A2978 RMK A01 T01910099  RH  055%=      5-min Rain = 0
KAM2 240617Z 16014KT 19/10 A2978 RMK A01 T01910099  RH  055%=      5-min Rain = 0
KAM2 240618Z 16014KT 19/10 A2978 RMK A01 T01910099  RH  055%=      5-min Rain = 0
KAM2 240619Z 16015KT 19/10 A2978 RMK A01 T01910099  RH  055%=      5-min Rain = 0
KAM2 240620Z 17016G22KT 19/10 A2978 RMK A01 T01910099  RH  055%=      5-min Rain = 0
KAM2 240621Z 17016G21KT 19/10 A2978 RMK A01 T01920099  RH  055%=      5-min Rain = 0
KAM2 240622Z 16016KT 19/10 A2978 RMK A01 T01920098  RH  055%=      5-min Rain = 0
KAM2 240623Z 16014KT 19/10 A2978 RMK A01 T01920098  RH  055%=      5-min Rain = 0
KAM2 240624Z 16015KT 19/10 A2978 RMK A01 T01920099  RH  055%=      5-min Rain = 0
KAM2 240625Z 16015KT 19/10 A2978 RMK A01 T01920098  RH  054%=      5-min Rain = 0
KAM2 240626Z 17016G21KT 19/10 A2978 RMK A01 T01920098  RH  054%=      5-min Rain = 0
KAM2 240627Z 17016KT 19/10 A2977 RMK A01 T01930097  RH  054%=      5-min Rain = 0
KAM2 240628Z 17014G19KT 19/10 A2978 RMK A01 T01940097  RH  054%=      5-min Rain = 0
KAM2 240629Z 16016KT 19/10 A2977 RMK A01 T01940097  RH  053%=      5-min Rain = 0
KAM2 240630Z 17016KT 19/10 A2977 RMK A01 T01940096  RH  053%=      5-min Rain = 0
KAM2 240631Z 16016KT 20/10 A2977 RMK A01 T01950096  RH  053%=      5-min Rain = 0
KAM2 240632Z 16015KT 20/10 A2977 RMK A01 T01960096  RH  053%=      5-min Rain = 0
KAM2 240633Z 17017KT 20/10 A2977 RMK A01 T01950096  RH  052%=      5-min Rain = 0
KAM2 240634Z 17016KT 20/10 A2977 RMK A01 T01960096  RH  052%=      5-min Rain = 0
KAM2 240635Z 17017KT 20/10 A2977 RMK A01 T01960095  RH  052%=      5-min Rain = 0
KAM2 240636Z 17017KT 20/10 A2977 RMK A01 T01970095  RH  052%=      5-min Rain = 0
KAM2 240637Z 16017KT 20/09 A2977 RMK A01 T01980094  RH  051%=      5-min Rain = 0
KAM2 240638Z 17017KT 20/09 A2977 RMK A01 T01980094  RH  051%=      5-min Rain = 0
KAM2 240639Z 17016KT 20/09 A2977 RMK A01 T01980093  RH  051%=      5-min Rain = 0
KAM2 240640Z 17016G21KT 20/09 A2977 RMK A01 T01990093  RH  051%=      5-min Rain = 0
KAM2 240641Z 17014KT 20/09 A2977 RMK A01 T01990093  RH  050%=      5-min Rain = 0
KAM2 240642Z 17015KT 20/09 A2977 RMK A01 T01990093  RH  050%=      5-min Rain = 0
KAM2 240643Z 17018G24KT 20/09 A2977 RMK A01 T01990093  RH  050%=      5-min Rain = 0
KAM2 240644Z 17017KT 20/09 A2977 RMK A01 T02000093  RH  050%=      5-min Rain = 0
KAM2 240645Z 17019G24KT 20/09 A2977 RMK A01 T02000093  RH  050%=      5-min Rain = 0
KAM2 240646Z 17017KT 20/09 A2977 RMK A01 T02010093  RH  050%=      5-min Rain = 0
KAM2 240647Z 17016G24KT 20/09 A2976 RMK A01 T02010093  RH  050%=      5-min Rain = 0
KAM2 240648Z 18021G26KT 20/09 A2976 RMK A01 T02010092  RH  049%=      5-min Rain = 0
KAM2 240649Z 17015KT 20/09 A2977 RMK A01 T02020093  RH  049%=      5-min Rain = 0
KAM2 240650Z 17017KT 20/09 A2977 RMK A01 T02020093  RH  049%=      5-min Rain = 0
KAM2 240651Z 17021G29KT 20/09 A2976 RMK A01 T02010093  RH  050%=      5-min Rain = 0
KAM2 240652Z 17018KT 20/09 A2977 RMK A01 T02010093  RH  050%=      5-min Rain = 0
KAM2 240653Z 17020G25KT 20/09 A2977 RMK A01 T02020093  RH  049%=      5-min Rain = 0
KAM2 240654Z 18020G25KT 20/09 A2977 RMK A01 T02020094  RH  050%=      5-min Rain = 0
KAM2 240655Z 17023KT 20/09 A2977 RMK A01 T02020094  RH  050%=      5-min Rain = 0
KAM2 240656Z 18023G28KT 20/09 A2977 RMK A01 T02020094  RH  050%=      5-min Rain = 0
KAM2 240657Z 17016KT 20/10 A2977 RMK A01 T02020095  RH  050%=      5-min Rain = 0
KAM2 240658Z 17019G28KT 20/10 A2977 RMK A01 T02010096  RH  051%=      5-min Rain = 0
KAM2 240659Z 17021G29KT 20/10 A2977 RMK A01 T02000096  RH  051%=      5-min Rain = 0
KAM2 240700Z 17023G28KT 20/10 A2977 RMK A01 T01990096  RH  051%=      5-min Rain = 0
KAM2 240701Z 17022G27KT 20/10 A2977 RMK A01 T01990097  RH  052%=      5-min Rain = 0
KAM2 240702Z 17021G27KT 20/10 A2977 RMK A01 T01990097  RH  052%=      5-min Rain = 0
KAM2 240703Z 17021G27KT 20/10 A2977 RMK A01 T01980097  RH  052%=      5-min Rain = 0
KAM2 240704Z 18021KT 20/10 A2977 RMK A01 T01970098  RH  052%=      5-min Rain = 0
KAM2 240705Z 18020KT 20/10 A2977 RMK A01 T01970098  RH  053%=      5-min Rain = 0
KAM2 240706Z 17021KT 20/10 A2977 RMK A01 T01960098  RH  053%=      5-min Rain = 0
KAM2 240707Z 18022KT 20/10 A2977 RMK A01 T01960098  RH  053%=      5-min Rain = 0
KAM2 240708Z 17020KT 20/10 A2977 RMK A01 T01960098  RH  053%=      5-min Rain = 0
KAM2 240709Z 17020G26KT 20/10 A2977 RMK A01 T01960098  RH  053%=      5-min Rain = 0
KAM2 240710Z 17022KT 20/10 A2977 RMK A01 T01950098  RH  053%=      5-min Rain = 0
KAM2 240711Z 17022G29KT 20/10 A2977 RMK A01 T01950098  RH  053%=      5-min Rain = 0
KAM2 240712Z 17021G26KT 20/10 A2977 RMK A01 T01950098  RH  053%=      5-min Rain = 0
KAM2 240713Z 17020KT 20/10 A2977 RMK A01 T01950098  RH  053%=      5-min Rain = 0
KAM2 240714Z 17019KT 20/10 A2978 RMK A01 T01950098  RH  054%=      5-min Rain = 0
KAM2 240715Z 17017KT 19/10 A2978 RMK A01 T01940098  RH  054%=      5-min Rain = 0
KAM2 240716Z 17019G24KT 19/10 A2978 RMK A01 T01940099  RH  054%=      5-min Rain = 0
KAM2 240717Z 17020KT 19/10 A2978 RMK A01 T01930098  RH  054%=      5-min Rain = 0
KAM2 240718Z 17020G25KT 19/10 A2978 RMK A01 T01930099  RH  054%=      5-min Rain = 0
KAM2 240719Z 17022G27KT 19/10 A2978 RMK A01 T01930099  RH  054%=      5-min Rain = 0
KAM2 240720Z 17021G26KT 19/10 A2978 RMK A01 T01930099  RH  055%=      5-min Rain = 0
KAM2 240721Z 17022KT 19/10 A2978 RMK A01 T01920099  RH  055%=      5-min Rain = 0
KAM2 240722Z 17019G24KT 19/10 A2978 RMK A01 T01920099  RH  055%=      5-min Rain = 0
KAM2 240723Z 17021G26KT 19/10 A2978 RMK A01 T01920099  RH  055%=      5-min Rain = 0
KAM2 240724Z 16018G23KT 19/10 A2978 RMK A01 T01910100  RH  055%=      5-min Rain = 0
KAM2 240725Z 16018G23KT 19/10 A2978 RMK A01 T01910100  RH  055%=      5-min Rain = 0
KAM2 240726Z 17022KT 19/10 A2978 RMK A01 T01900099  RH  056%=      5-min Rain = 0
KAM2 240727Z 17020G29KT 19/10 A2978 RMK A01 T01900099  RH  055%=      5-min Rain = 0
KAM2 240728Z 17021KT 19/10 A2978 RMK A01 T01900099  RH  055%=      5-min Rain = 0
KAM2 240729Z 16019G25KT 19/10 A2978 RMK A01 T01900099  RH  055%=      5-min Rain = 0
KAM2 240730Z 17021G27KT 19/10 A2978 RMK A01 T01900099  RH  056%=      5-min Rain = 0
KAM2 240731Z 16022G28KT 19/10 A2978 RMK A01 T01900099  RH  056%=      5-min Rain = 0
KAM2 240732Z 16020G26KT 19/10 A2978 RMK A01 T01900100  RH  056%=      5-min Rain = 0
KAM2 240733Z 17019G25KT 19/10 A2979 RMK A01 T01900100  RH  056%=      5-min Rain = 0
KAM2 240734Z 17021G26KT 19/10 A2979 RMK A01 T01890100  RH  056%=      5-min Rain = 0
KAM2 240735Z 16020KT 19/10 A2979 RMK A01 T01890100  RH  056%=      5-min Rain = 0
KAM2 240736Z 16021G26KT 19/10 A2979 RMK A01 T01900100  RH  056%=      5-min Rain = 0
KAM2 240737Z 16020KT 19/10 A2979 RMK A01 T01890100  RH  056%=      5-min Rain = 0
KAM2 240738Z 17020G25KT 19/10 A2979 RMK A01 T01890100  RH  056%=      5-min Rain = 0
KAM2 240739Z 16021G26KT 19/10 A2979 RMK A01 T01890100  RH  056%=      5-min Rain = 0
KAM2 240740Z 17018G23KT 19/10 A2979 RMK A01 T01890099  RH  056%=      5-min Rain = 0
KAM2 240741Z 16017G25KT 19/10 A2979 RMK A01 T01890099  RH  056%=      5-min Rain = 0
KAM2 240742Z 17023G28KT 19/10 A2979 RMK A01 T01890099  RH  056%=      5-min Rain = 0
KAM2 240743Z 16021G26KT 19/10 A2979 RMK A01 T01890099  RH  056%=      5-min Rain = 0
KAM2 240744Z 17019G26KT 19/10 A2979 RMK A01 T01900099  RH  055%=      5-min Rain = 0
KAM2 240745Z 16021KT 19/10 A2979 RMK A01 T01900099  RH  055%=      5-min Rain = 0
KAM2 240746Z 17020G26KT 19/10 A2979 RMK A01 T01900099  RH  056%=      5-min Rain = 0
KAM2 240747Z 16020KT 19/10 A2979 RMK A01 T01890099  RH  056%=      5-min Rain = 0
KAM2 240748Z 17022KT 19/10 A2979 RMK A01 T01890099  RH  056%=      5-min Rain = 0
KAM2 240749Z 17020KT 19/10 A2979 RMK A01 T01900099  RH  056%=      5-min Rain = 0
KAM2 240750Z 17017KT 19/10 A2979 RMK A01 T01890099  RH  056%=      5-min Rain = 0
KAM2 240751Z 16017G22KT 19/10 A2979 RMK A01 T01890099  RH  056%=      5-min Rain = 0
KAM2 240752Z 17018G23KT 19/10 A2979 RMK A01 T01890099  RH  056%=      5-min Rain = 0
KAM2 240753Z 16016KT 19/10 A2979 RMK A01 T01880099  RH  056%=      5-min Rain = 0
KAM2 240754Z 16018G24KT 19/10 A2979 RMK A01 T01880099  RH  056%=      5-min Rain = 0
KAM2 240755Z 16017KT 19/10 A2979 RMK A01 T01880098  RH  056%=      5-min Rain = 0
KAM2 240756Z 17015KT 19/10 A298 RMK A01 T01880098  RH  056%=      5-min Rain = 0
KAM2 240757Z 17016KT 19/10 A2979 RMK A01 T01880097  RH  056%=      5-min Rain = 0
KAM2 240758Z 17017KT 19/10 A2979 RMK A01 T01880097  RH  055%=      5-min Rain = 0
KAM2 240759Z 16013G18KT 19/10 A298 RMK A01 T01890097  RH  055%=      5-min Rain = 0
KAM2 240800Z 17014G19KT 19/10 A298 RMK A01 T01880097  RH  055%=      5-min Rain = 0
KAM2 240801Z 17017KT 19/10 A298 RMK A01 T01880097  RH  055%=      5-min Rain = 0
KAM2 240802Z 16014KT 19/10 A2979 RMK A01 T01880096  RH  055%=      5-min Rain = 0
KAM2 240803Z 17014KT 19/10 A2979 RMK A01 T01880097  RH  055%=      5-min Rain = 0
KAM2 240804Z 17019G24KT 19/10 A2979 RMK A01 T01880097  RH  055%=      5-min Rain = 0
KAM2 240805Z 17018G23KT 19/10 A2979 RMK A01 T01890096  RH  055%=      5-min Rain = 0
KAM2 240806Z 17021KT 19/10 A2979 RMK A01 T01900096  RH  054%=      5-min Rain = 0
KAM2 240807Z 17019G24KT 19/10 A2979 RMK A01 T01910096  RH  054%=      5-min Rain = 0
KAM2 240808Z 17019G26KT 19/10 A2979 RMK A01 T01910096  RH  054%=      5-min Rain = 0
KAM2 240809Z 17020KT 19/10 A2979 RMK A01 T01910096  RH  054%=      5-min Rain = 0
KAM2 240810Z 17020KT 19/10 A2979 RMK A01 T01920096  RH  054%=      5-min Rain = 0
KAM2 240811Z 17020G26KT 19/10 A2979 RMK A01 T01920096  RH  054%=      5-min Rain = 0
KAM2 240812Z 16019KT 19/10 A2979 RMK A01 T01920096  RH  054%=      5-min Rain = 0
KAM2 240813Z 16019G25KT 19/10 A2979 RMK A01 T01920096  RH  054%=      5-min Rain = 0
KAM2 240814Z 17023KT 19/10 A2979 RMK A01 T01930096  RH  053%=      5-min Rain = 0
KAM2 240815Z 17017G23KT 19/10 A2979 RMK A01 T01930096  RH  053%=      5-min Rain = 0
KAM2 240816Z 17019KT 19/10 A2979 RMK A01 T01940096  RH  053%=      5-min Rain = 0
KAM2 240817Z 16021KT 19/10 A2979 RMK A01 T01930096  RH  053%=      5-min Rain = 0
KAM2 240818Z 16021G27KT 19/10 A2979 RMK A01 T01940095  RH  053%=      5-min Rain = 0
KAM2 240819Z 16020G25KT 19/10 A2979 RMK A01 T01940095  RH  053%=      5-min Rain = 0
KAM2 240820Z 16020G25KT 20/10 A2979 RMK A01 T01950095  RH  053%=      5-min Rain = 0
KAM2 240821Z 16018G25KT 20/10 A2979 RMK A01 T01950096  RH  053%=      5-min Rain = 0
KAM2 240822Z 16021KT 20/10 A2979 RMK A01 T01950096  RH  053%=      5-min Rain = 0
KAM2 240823Z 16021G27KT 20/10 A2979 RMK A01 T01950096  RH  053%=      5-min Rain = 0
KAM2 240824Z 17018G23KT 20/10 A2979 RMK A01 T01950095  RH  052%=      5-min Rain = 0
KAM2 240825Z 16018KT 20/10 A2979 RMK A01 T01950095  RH  053%=      5-min Rain = 0
KAM2 240826Z 16020G28KT 19/10 A2979 RMK A01 T01940095  RH  053%=      5-min Rain = 0
KAM2 240827Z 16021G26KT 19/10 A2979 RMK A01 T01940095  RH  053%=      5-min Rain = 0
KAM2 240828Z 16021KT 19/10 A2979 RMK A01 T01940095  RH  053%=      5-min Rain = 0
KAM2 240829Z 16018G24KT 19/10 A2979 RMK A01 T01940095  RH  053%=      5-min Rain = 0
KAM2 240830Z 17020KT 19/10 A2979 RMK A01 T01940095  RH  053%=      5-min Rain = 0
KAM2 240831Z 17022KT 19/10 A2979 RMK A01 T01930095  RH  053%=      5-min Rain = 0
KAM2 240832Z 16023KT 19/09 A2979 RMK A01 T01930094  RH  053%=      5-min Rain = 0
KAM2 240833Z 16020G25KT 19/09 A298 RMK A01 T01930094  RH  053%=      5-min Rain = 0
KAM2 240834Z 17020G26KT 19/09 A298 RMK A01 T01930094  RH  053%=      5-min Rain = 0
KAM2 240835Z 17023KT 19/09 A2979 RMK A01 T01930094  RH  053%=      5-min Rain = 0
KAM2 240836Z 16017G24KT 19/09 A298 RMK A01 T01930094  RH  053%=      5-min Rain = 0
KAM2 240837Z 17020G25KT 19/09 A298 RMK A01 T01930094  RH  053%=      5-min Rain = 0
KAM2 240838Z 17020KT 19/10 A298 RMK A01 T01930095  RH  053%=      5-min Rain = 0
KAM2 240839Z 17019KT 19/10 A298 RMK A01 T01920095  RH  053%=      5-min Rain = 0
KAM2 240840Z 17017G22KT 19/10 A298 RMK A01 T01910095  RH  053%=      5-min Rain = 0
KAM2 240841Z 16018KT 19/10 A298 RMK A01 T01910095  RH  054%=      5-min Rain = 0
KAM2 240842Z 17017KT 19/09 A298 RMK A01 T01900094  RH  054%=      5-min Rain = 0
KAM2 240843Z 17019G24KT 19/10 A298 RMK A01 T01900095  RH  054%=      5-min Rain = 0
KAM2 240844Z 16016KT 19/10 A298 RMK A01 T01890095  RH  054%=      5-min Rain = 0
KAM2 240845Z 17016KT 19/10 A298 RMK A01 T01890095  RH  054%=      5-min Rain = 0
KAM2 240846Z 17015G20KT 19/10 A298 RMK A01 T01880095  RH  055%=      5-min Rain = 0
KAM2 240847Z 17017KT 19/10 A298 RMK A01 T01880095  RH  055%=      5-min Rain = 0
KAM2 240848Z 17016G21KT 19/10 A298 RMK A01 T01880095  RH  055%=      5-min Rain = 0
KAM2 240849Z 17016KT 19/10 A298 RMK A01 T01870095  RH  055%=      5-min Rain = 0
KAM2 240850Z 17016KT 19/10 A298 RMK A01 T01870095  RH  055%=      5-min Rain = 0
KAM2 240851Z 17017KT 19/10 A298 RMK A01 T01870095  RH  055%=      5-min Rain = 0
KAM2 240852Z 17019KT 19/10 A298 RMK A01 T01870095  RH  055%=      5-min Rain = 0
KAM2 240853Z 17020KT 19/10 A298 RMK A01 T01870095  RH  055%=      5-min Rain = 0
KAM2 240854Z 17017KT 19/10 A2981 RMK A01 T01870095  RH  055%=      5-min Rain = 0
KAM2 240855Z 17018KT 19/10 A2981 RMK A01 T01880096  RH  055%=      5-min Rain = 0
KAM2 240856Z 17017KT 19/10 A2981 RMK A01 T01870096  RH  055%=      5-min Rain = 0
KAM2 240857Z 16017KT 19/10 A2981 RMK A01 T01870096  RH  056%=      5-min Rain = 0
KAM2 240858Z 16016KT 19/10 A2981 RMK A01 T01860096  RH  056%=      5-min Rain = 0
KAM2 240859Z 16016KT 19/10 A2981 RMK A01 T01860096  RH  056%=      5-min Rain = 0
KAM2 240900Z 16017KT 19/10 A2981 RMK A01 T01850096  RH  056%=      5-min Rain = 0
KAM2 240901Z 16018KT 18/10 A2981 RMK A01 T01840096  RH  056%=      5-min Rain = 0
KAM2 240902Z 17015G21KT 19/10 A298 RMK A01 T01850097  RH  057%=      5-min Rain = 0
KAM2 240903Z 16018KT 18/10 A298 RMK A01 T01840097  RH  057%=      5-min Rain = 0
KAM2 240904Z 16017KT 18/10 A298 RMK A01 T01830097  RH  057%=      5-min Rain = 0
KAM2 240905Z 16013KT 18/10 A2981 RMK A01 T01830097  RH  057%=      5-min Rain = 0
KAM2 240906Z 16015KT 18/10 A2981 RMK A01 T01830097  RH  057%=      5-min Rain = 0
KAM2 240907Z 16016KT 18/10 A2981 RMK A01 T01820097  RH  058%=      5-min Rain = 0
KAM2 240908Z 16015KT 18/10 A2981 RMK A01 T01820097  RH  058%=      5-min Rain = 0
KAM2 240909Z 17015KT 18/10 A2981 RMK A01 T01810097  RH  058%=      5-min Rain = 0
KAM2 240910Z 16015KT 18/10 A2981 RMK A01 T01810097  RH  058%=      5-min Rain = 0
KAM2 240911Z 17017KT 18/10 A2981 RMK A01 T01810097  RH  058%=      5-min Rain = 0
KAM2 240912Z 16016KT 18/10 A2981 RMK A01 T01800096  RH  058%=      5-min Rain = 0
KAM2 240913Z 16014KT 18/10 A2981 RMK A01 T01800096  RH  058%=      5-min Rain = 0
KAM2 240914Z 16016KT 18/10 A2981 RMK A01 T01800096  RH  058%=      5-min Rain = 0
KAM2 240915Z 16014KT 18/10 A2981 RMK A01 T01800095  RH  057%=      5-min Rain = 0
KAM2 240916Z 16014KT 18/10 A2981 RMK A01 T01810095  RH  057%=      5-min Rain = 0
KAM2 240917Z 16017G22KT 18/10 A2981 RMK A01 T01800095  RH  057%=      5-min Rain = 0
KAM2 240918Z 16018KT 18/10 A2981 RMK A01 T01810096  RH  057%=      5-min Rain = 0
KAM2 240919Z 17017G22KT 18/10 A2981 RMK A01 T01810096  RH  057%=      5-min Rain = 0
KAM2 240920Z 17016KT 18/10 A2981 RMK A01 T01820096  RH  057%=      5-min Rain = 0
KAM2 240921Z 17016KT 18/10 A2981 RMK A01 T01820097  RH  057%=      5-min Rain = 0
KAM2 240922Z 16016KT 18/10 A2981 RMK A01 T01810096  RH  057%=      5-min Rain = 0
KAM2 240923Z 16014KT 18/10 A2981 RMK A01 T01810096  RH  058%=      5-min Rain = 0
KAM2 240924Z 16016KT 18/10 A2981 RMK A01 T01810097  RH  058%=      5-min Rain = 0
KAM2 240925Z 16016KT 18/10 A2981 RMK A01 T01810097  RH  058%=      5-min Rain = 0
KAM2 240926Z 16018KT 18/10 A2981 RMK A01 T01810097  RH  058%=      5-min Rain = 0
KAM2 240927Z 16017KT 18/10 A2981 RMK A01 T01810097  RH  058%=      5-min Rain = 0
KAM2 240928Z 17017KT 18/10 A2981 RMK A01 T01810097  RH  058%=      5-min Rain = 0
KAM2 240929Z 17016KT 18/10 A2981 RMK A01 T01810097  RH  058%=      5-min Rain = 0
KAM2 240930Z 17018KT 18/10 A298 RMK A01 T01800097  RH  058%=      5-min Rain = 0
KAM2 240931Z 17015KT 18/10 A2981 RMK A01 T01800097  RH  058%=      5-min Rain = 0
KAM2 240932Z 17014KT 18/10 A2981 RMK A01 T01810097  RH  058%=      5-min Rain = 0
KAM2 240933Z 16016KT 18/10 A2981 RMK A01 T01800097  RH  058%=      5-min Rain = 0
KAM2 240934Z 17017G22KT 18/10 A298 RMK A01 T01800097  RH  058%=      5-min Rain = 0
KAM2 240935Z 17017G22KT 18/10 A298 RMK A01 T01810097  RH  058%=      5-min Rain = 0
KAM2 240936Z 17016G22KT 18/10 A2981 RMK A01 T01820097  RH  058%=      5-min Rain = 0
KAM2 240937Z 17019KT 18/10 A298 RMK A01 T01820097  RH  057%=      5-min Rain = 0
KAM2 240938Z 17018KT 18/10 A2981 RMK A01 T01820096  RH  057%=      5-min Rain = 0
KAM2 240939Z 17017KT 18/10 A2981 RMK A01 T01830097  RH  057%=      5-min Rain = 0
KAM2 240940Z 17017KT 18/10 A298 RMK A01 T01830097  RH  057%=      5-min Rain = 0
KAM2 240941Z 16014G20KT 18/10 A2981 RMK A01 T01820097  RH  057%=      5-min Rain = 0
KAM2 240942Z 17016KT 18/10 A2981 RMK A01 T01820097  RH  058%=      5-min Rain = 0
KAM2 240943Z 17019KT 18/10 A2981 RMK A01 T01810097  RH  058%=      5-min Rain = 0
KAM2 240944Z 17017KT 18/10 A2981 RMK A01 T01820097  RH  058%=      5-min Rain = 0
KAM2 240945Z 17019KT 18/10 A2981 RMK A01 T01820098  RH  058%=      5-min Rain = 0
KAM2 240946Z 16018KT 18/10 A2981 RMK A01 T01820098  RH  058%=      5-min Rain = 0
KAM2 240947Z 16017G22KT 18/10 A2981 RMK A01 T01820098  RH  058%=      5-min Rain = 0
KAM2 240948Z 16017G22KT 18/10 A2981 RMK A01 T01810098  RH  058%=      5-min Rain = 0
KAM2 240949Z 17016G21KT 18/10 A2981 RMK A01 T01810099  RH  058%=      5-min Rain = 0
KAM2 240950Z 17015KT 18/10 A2981 RMK A01 T01810099  RH  059%=      5-min Rain = 0
KAM2 240951Z 17016KT 18/10 A2981 RMK A01 T01810099  RH  059%=      5-min Rain = 0
KAM2 240952Z 17018KT 18/10 A2981 RMK A01 T01810099  RH  059%=      5-min Rain = 0
KAM2 240953Z 17019KT 18/10 A2981 RMK A01 T01810099  RH  059%=      5-min Rain = 0
KAM2 240954Z 17017KT 18/10 A2981 RMK A01 T01810099  RH  059%=      5-min Rain = 0
KAM2 240955Z 17016KT 18/10 A2981 RMK A01 T01820099  RH  059%=      5-min Rain = 0
KAM2 240956Z 17016KT 18/10 A2981 RMK A01 T01820100  RH  059%=      5-min Rain = 0
KAM2 240957Z 17017KT 18/10 A2981 RMK A01 T01810099  RH  059%=      5-min Rain = 0
KAM2 240958Z 17018KT 18/10 A2981 RMK A01 T01810100  RH  059%=      5-min Rain = 0
KAM2 240959Z 17020KT 18/10 A2981 RMK A01 T01810100  RH  059%=      5-min Rain = 0
KAM2 241000Z 17016G24KT 18/10 A2981 RMK A01 T01820100  RH  059%=      5-min Rain = 0
KAM2 241001Z 17016KT 18/10 A2981 RMK A01 T01820100  RH  059%=      5-min Rain = 0
KAM2 241002Z 17017KT 18/10 A2981 RMK A01 T01820100  RH  059%=      5-min Rain = 0
KAM2 241003Z 17017KT 18/10 A2981 RMK A01 T01810100  RH  059%=      5-min Rain = 0
KAM2 241004Z 17015KT 18/10 A2981 RMK A01 T01810100  RH  059%=      5-min Rain = 0
KAM2 241005Z 17015KT 18/10 A2981 RMK A01 T01810100  RH  059%=      5-min Rain = 0
KAM2 241006Z 17014KT 18/10 A2981 RMK A01 T01800100  RH  059%=      5-min Rain = 0
KAM2 241007Z 17014KT 18/10 A2981 RMK A01 T01800101  RH  060%=      5-min Rain = 0
KAM2 241008Z 17014KT 18/10 A2981 RMK A01 T01790101  RH  060%=      5-min Rain = 0
KAM2 241009Z 17016KT 18/10 A2981 RMK A01 T01790101  RH  060%=      5-min Rain = 0
KAM2 241010Z 17013KT 18/10 A2981 RMK A01 T01790101  RH  060%=      5-min Rain = 0
KAM2 241011Z 17016KT 18/10 A2981 RMK A01 T01790102  RH  060%=      5-min Rain = 0
KAM2 241012Z 17015KT 18/10 A2981 RMK A01 T01790102  RH  061%=      5-min Rain = 0
KAM2 241013Z 16016KT 18/10 A2981 RMK A01 T01790102  RH  061%=      5-min Rain = 0
KAM2 241014Z 17015KT 18/10 A2981 RMK A01 T01790103  RH  061%=      5-min Rain = 0
KAM2 241015Z 17014KT 18/10 A2981 RMK A01 T01780102  RH  061%=      5-min Rain = 0
KAM2 241016Z 17012G17KT 18/10 A2981 RMK A01 T01770103  RH  061%=      5-min Rain = 0
KAM2 241017Z 17015KT 18/10 A2981 RMK A01 T01770103  RH  062%=      5-min Rain = 0
KAM2 241018Z 17014G19KT 18/10 A2981 RMK A01 T01760103  RH  062%=      5-min Rain = 0
KAM2 241019Z 17014KT 18/10 A2981 RMK A01 T01760103  RH  062%=      5-min Rain = 0
KAM2 241020Z 16014KT 18/10 A2981 RMK A01 T01760103  RH  062%=      5-min Rain = 0
KAM2 241021Z 16014KT 18/10 A2981 RMK A01 T01750103  RH  063%=      5-min Rain = 0
KAM2 241022Z 16013KT 18/10 A2981 RMK A01 T01750103  RH  063%=      5-min Rain = 0
KAM2 241023Z 16014KT 18/10 A2981 RMK A01 T01750104  RH  063%=      5-min Rain = 0
KAM2 241024Z 16016KT 17/10 A2981 RMK A01 T01740104  RH  063%=      5-min Rain = 0
KAM2 241025Z 16015KT 17/10 A2981 RMK A01 T01740104  RH  063%=      5-min Rain = 0
KAM2 241026Z 16015KT 17/10 A2981 RMK A01 T01730104  RH  064%=      5-min Rain = 0
KAM2 241027Z 16016G21KT 17/10 A2981 RMK A01 T01730104  RH  064%=      5-min Rain = 0
KAM2 241028Z 16015KT 17/10 A2981 RMK A01 T01740104  RH  064%=      5-min Rain = 0
KAM2 241029Z 17014KT 17/10 A2981 RMK A01 T01730104  RH  064%=      5-min Rain = 0
KAM2 241030Z 17013KT 17/11 A2981 RMK A01 T01730105  RH  064%=      5-min Rain = 0
KAM2 241031Z 16015KT 17/11 A2981 RMK A01 T01720105  RH  064%=      5-min Rain = 0
KAM2 241032Z 16013KT 17/11 A2981 RMK A01 T01720105  RH  065%=      5-min Rain = 0
KAM2 241033Z 16016KT 17/11 A2981 RMK A01 T01720105  RH  065%=      5-min Rain = 0
KAM2 241034Z 16013KT 17/11 A2981 RMK A01 T01720105  RH  065%=      5-min Rain = 0
KAM2 241035Z 17013KT 17/11 A2981 RMK A01 T01710105  RH  065%=      5-min Rain = 0
KAM2 241036Z 17014KT 17/11 A2981 RMK A01 T01710105  RH  065%=      5-min Rain = 0
KAM2 241037Z 17013KT 17/11 A2981 RMK A01 T01710105  RH  065%=      5-min Rain = 0
KAM2 241038Z 17013KT 17/11 A298 RMK A01 T01700105  RH  066%=      5-min Rain = 0
KAM2 241039Z 17013KT 17/11 A298 RMK A01 T01700106  RH  066%=      5-min Rain = 0
KAM2 241040Z 17014KT 17/11 A298 RMK A01 T01700106  RH  066%=      5-min Rain = 0
KAM2 241041Z 17017KT 17/11 A298 RMK A01 T01700106  RH  066%=      5-min Rain = 0
KAM2 241042Z 17015G20KT 17/11 A298 RMK A01 T01700106  RH  066%=      5-min Rain = 0
KAM2 241043Z 17014KT 17/11 A298 RMK A01 T01710106  RH  066%=      5-min Rain = 0
KAM2 241044Z 17015G20KT 17/11 A298 RMK A01 T01700106  RH  066%=      5-min Rain = 0
KAM2 241045Z 17016KT 17/11 A298 RMK A01 T01700107  RH  066%=      5-min Rain = 0
KAM2 241046Z 17016KT 17/11 A298 RMK A01 T01700106  RH  066%=      5-min Rain = 0
KAM2 241047Z 16016KT 17/11 A298 RMK A01 T01700106  RH  066%=      5-min Rain = 0
KAM2 241048Z 17014KT 17/11 A298 RMK A01 T01700107  RH  066%=      5-min Rain = 0
KAM2 241049Z 17013KT 17/11 A298 RMK A01 T01700107  RH  067%=      5-min Rain = 0
KAM2 241050Z 17013KT 17/11 A298 RMK A01 T01690107  RH  067%=      5-min Rain = 0
KAM2 241051Z 17014KT 17/11 A298 RMK A01 T01690108  RH  067%=      5-min Rain = 0
KAM2 241052Z 16013KT 17/11 A298 RMK A01 T01690108  RH  067%=      5-min Rain = 0
KAM2 241053Z 17016KT 17/11 A298 RMK A01 T01690109  RH  068%=      5-min Rain = 0
KAM2 241054Z 17016G21KT 17/11 A298 RMK A01 T01690109  RH  068%=      5-min Rain = 0
KAM2 241055Z 17017KT 17/11 A298 RMK A01 T01690109  RH  068%=      5-min Rain = 0
KAM2 241056Z 17016KT 17/11 A298 RMK A01 T01690109  RH  068%=      5-min Rain = 0
KAM2 241057Z 17017G24KT 17/11 A298 RMK A01 T01690109  RH  068%=      5-min Rain = 0
KAM2 241058Z 17019KT 17/11 A298 RMK A01 T01690110  RH  068%=      5-min Rain = 0
KAM2 241059Z 18018G23KT 17/11 A298 RMK A01 T01690110  RH  068%=      5-min Rain = 0
KAM2 241100Z 17017G22KT 17/11 A298 RMK A01 T01690110  RH  068%=      5-min Rain = 0
KAM2 241101Z 17018G23KT 17/11 A298 RMK A01 T01690111  RH  069%=      5-min Rain = 0
KAM2 241102Z 17019KT 17/11 A2979 RMK A01 T01680111  RH  069%=      5-min Rain = 0
KAM2 241103Z 17017KT 17/11 A2979 RMK A01 T01680111  RH  069%=      5-min Rain = 0
KAM2 241104Z 18016KT 17/11 A298 RMK A01 T01680112  RH  069%=      5-min Rain = 0
KAM2 241105Z 18019G24KT 17/11 A298 RMK A01 T01670111  RH  070%=      5-min Rain = 0
KAM2 241106Z 17019KT 17/11 A298 RMK A01 T01670111  RH  070%=      5-min Rain = 0
KAM2 241107Z 17019KT 17/11 A298 RMK A01 T01670111  RH  070%=      5-min Rain = 0
KAM2 241108Z 17017G22KT 17/11 A2979 RMK A01 T01670112  RH  070%=      5-min Rain = 0
KAM2 241109Z 17018KT 17/11 A298 RMK A01 T01670112  RH  070%=      5-min Rain = 0
KAM2 241110Z 17016KT 17/11 A298 RMK A01 T01660112  RH  070%=      5-min Rain = 0
KAM2 241111Z 17018KT 17/11 A2979 RMK A01 T01660112  RH  070%=      5-min Rain = 0
KAM2 241112Z 17021KT 17/11 A2979 RMK A01 T01660112  RH  070%=      5-min Rain = 0
KAM2 241113Z 17017G23KT 17/11 A2979 RMK A01 T01660112  RH  071%=      5-min Rain = 0
KAM2 241114Z 17019KT 17/11 A2979 RMK A01 T01650112  RH  071%=      5-min Rain = 0
KAM2 241115Z 17018KT 17/11 A2979 RMK A01 T01650112  RH  071%=      5-min Rain = 0
KAM2 241116Z 17020KT 17/11 A2979 RMK A01 T01650113  RH  071%=      5-min Rain = 0
KAM2 241117Z 17020G25KT 17/11 A2979 RMK A01 T01650112  RH  071%=      5-min Rain = 0
KAM2 241118Z 17020KT 17/11 A2979 RMK A01 T01650112  RH  071%=      5-min Rain = 0
KAM2 241119Z 17016G22KT 17/11 A2979 RMK A01 T01660112  RH  070%=      5-min Rain = 0
KAM2 241120Z 17019KT 17/11 A2979 RMK A01 T01650112  RH  071%=      5-min Rain = 0
KAM2 241121Z 18018KT 17/11 A2979 RMK A01 T01650111  RH  071%=      5-min Rain = 0
KAM2 241122Z 17019KT 17/11 A2979 RMK A01 T01650111  RH  070%=      5-min Rain = 0
KAM2 241123Z 17019KT 17/11 A2979 RMK A01 T01650111  RH  070%=      5-min Rain = 0
KAM2 241124Z 17021KT 17/11 A2979 RMK A01 T01650110  RH  070%=      5-min Rain = 0
KAM2 241125Z 17019KT 17/11 A2979 RMK A01 T01660110  RH  070%=      5-min Rain = 0
KAM2 241126Z 18020G25KT 17/11 A2979 RMK A01 T01660110  RH  070%=      5-min Rain = 0
KAM2 241127Z 17021KT 17/11 A2979 RMK A01 T01660110  RH  070%=      5-min Rain = 0
KAM2 241128Z 18019G27KT 17/11 A2979 RMK A01 T01660110  RH  070%=      5-min Rain = 0
KAM2 241129Z 18021KT 17/11 A2979 RMK A01 T01650110  RH  070%=      5-min Rain = 0
KAM2 241130Z 17022G27KT 17/11 A2979 RMK A01 T01660110  RH  069%=      5-min Rain = 0
KAM2 241131Z 18022G27KT 17/11 A2979 RMK A01 T01660109  RH  069%=      5-min Rain = 0
KAM2 241132Z 18023KT 17/11 A2979 RMK A01 T01670109  RH  069%=      5-min Rain = 0
KAM2 241133Z 17021KT 17/11 A2979 RMK A01 T01670109  RH  068%=      5-min Rain = 0
KAM2 241134Z 18020KT 17/11 A2979 RMK A01 T01670109  RH  068%=      5-min Rain = 0
KAM2 241135Z 18021KT 17/11 A2979 RMK A01 T01670109  RH  069%=      5-min Rain = 0
KAM2 241136Z 18022G27KT 17/11 A2979 RMK A01 T01670109  RH  069%=      5-min Rain = 0
KAM2 241137Z 18022KT 17/11 A2979 RMK A01 T01670109  RH  069%=      5-min Rain = 0
KAM2 241138Z 18021G26KT 17/11 A2979 RMK A01 T01670109  RH  069%=      5-min Rain = 0
KAM2 241139Z 18019G24KT 17/11 A2979 RMK A01 T01670109  RH  069%=      5-min Rain = 0
KAM2 241140Z 17019KT 17/11 A2979 RMK A01 T01670109  RH  069%=      5-min Rain = 0
KAM2 241141Z 18019G25KT 17/11 A2979 RMK A01 T01670110  RH  069%=      5-min Rain = 0
KAM2 241142Z 18021G26KT 17/11 A2979 RMK A01 T01660109  RH  069%=      5-min Rain = 0
KAM2 241143Z 18022G28KT 17/11 A2979 RMK A01 T01680109  RH  068%=      5-min Rain = 0
KAM2 241144Z 17019KT 17/11 A2979 RMK A01 T01680108  RH  068%=      5-min Rain = 0
KAM2 241145Z 18019G25KT 17/11 A2979 RMK A01 T01680108  RH  068%=      5-min Rain = 0
KAM2 241146Z 18022KT 17/11 A2979 RMK A01 T01680108  RH  068%=      5-min Rain = 0
KAM2 241147Z 17020G25KT 17/11 A2979 RMK A01 T01680108  RH  067%=      5-min Rain = 0
KAM2 241148Z 18020G26KT 17/11 A2979 RMK A01 T01680108  RH  068%=      5-min Rain = 0
KAM2 241149Z 18021KT 17/11 A2979 RMK A01 T01680108  RH  068%=      5-min Rain = 0
KAM2 241150Z 18021KT 17/11 A2979 RMK A01 T01690109  RH  068%=      5-min Rain = 0
KAM2 241151Z 18020KT 17/11 A2979 RMK A01 T01690109  RH  068%=      5-min Rain = 0
KAM2 241152Z 18022KT 17/11 A2979 RMK A01 T01680109  RH  068%=      5-min Rain = 0
KAM2 241153Z 18022KT 17/11 A2979 RMK A01 T01680108  RH  068%=      5-min Rain = 0
KAM2 241154Z 18022KT 17/11 A2979 RMK A01 T01680109  RH  068%=      5-min Rain = 0
KAM2 241155Z 18021KT 17/11 A2979 RMK A01 T01680109  RH  068%=      5-min Rain = 0
KAM2 241156Z 18022G28KT 17/11 A2979 RMK A01 T01670109  RH  069%=      5-min Rain = 0
KAM2 241157Z 17023KT 17/11 A2979 RMK A01 T01670110  RH  069%=      5-min Rain = 0
KAM2 241158Z 17019KT 17/11 A2979 RMK A01 T01670110  RH  069%=      5-min Rain = 0
KAM2 241159Z 18021KT 17/11 A2979 RMK A01 T01670110  RH  069%=      5-min Rain = 0
KAM2 241200Z 18020G25KT 17/11 A2979 RMK A01 T01660110  RH  069%=      5-min Rain = 0
KAM2 241201Z 18019KT 17/11 A2979 RMK A01 T01660110  RH  069%=      5-min Rain = 0
KAM2 241202Z 17018KT 17/11 A298 RMK A01 T01660110  RH  070%=      5-min Rain = 0
KAM2 241203Z 18022KT 17/11 A2979 RMK A01 T01650110  RH  070%=      5-min Rain = 0
KAM2 241204Z 17021KT 17/11 A298 RMK A01 T01660110  RH  070%=      5-min Rain = 0
KAM2 241205Z 18021G26KT 17/11 A298 RMK A01 T01650110  RH  070%=      5-min Rain = 0
KAM2 241206Z 17021KT 17/11 A298 RMK A01 T01650110  RH  070%=      5-min Rain = 0
KAM2 241207Z 17019G25KT 17/11 A298 RMK A01 T01650110  RH  070%=      5-min Rain = 0
KAM2 241208Z 17020KT 17/11 A298 RMK A01 T01650110  RH  070%=      5-min Rain = 0
KAM2 241209Z 18020G28KT 17/11 A298 RMK A01 T01650110  RH  070%=      5-min Rain = 0
KAM2 241210Z 17021KT 17/11 A298 RMK A01 T01650110  RH  070%=      5-min Rain = 0
KAM2 241211Z 17019KT 17/11 A298 RMK A01 T01650110  RH  070%=      5-min Rain = 0
KAM2 241212Z 17019KT 17/11 A298 RMK A01 T01650111  RH  070%=      5-min Rain = 0
KAM2 241213Z 17023KT 17/11 A298 RMK A01 T01650111  RH  071%=      5-min Rain = 0
KAM2 241214Z 18019KT 17/11 A298 RMK A01 T01650111  RH  071%=      5-min Rain = 0
KAM2 241215Z 17021KT 16/11 A298 RMK A01 T01640111  RH  071%=      5-min Rain = 0
KAM2 241216Z 17021G26KT 16/11 A298 RMK A01 T01640111  RH  071%=      5-min Rain = 0
KAM2 241217Z 18021G26KT 16/11 A298 RMK A01 T01640111  RH  071%=      5-min Rain = 0
KAM2 241218Z 18023KT 16/11 A298 RMK A01 T01640111  RH  071%=      5-min Rain = 0
KAM2 241219Z 17020KT 16/11 A298 RMK A01 T01640111  RH  071%=      5-min Rain = 0
KAM2 241220Z 17019KT 16/11 A298 RMK A01 T01640111  RH  071%=      5-min Rain = 0
KAM2 241221Z 17021KT 16/11 A298 RMK A01 T01640112  RH  071%=      5-min Rain = 0
KAM2 241222Z 17022KT 16/11 A298 RMK A01 T01640112  RH  071%=      5-min Rain = 0
KAM2 241223Z 17021KT 16/11 A298 RMK A01 T01640112  RH  071%=      5-min Rain = 0
KAM2 241224Z 17018KT 16/11 A298 RMK A01 T01640112  RH  071%=      5-min Rain = 0
KAM2 241225Z 17019KT 16/11 A298 RMK A01 T01640113  RH  071%=      5-min Rain = 0
KAM2 241226Z 17021KT 16/11 A298 RMK A01 T01640112  RH  071%=      5-min Rain = 0
KAM2 241227Z 17022KT 16/11 A298 RMK A01 T01640113  RH  071%=      5-min Rain = 0
KAM2 241228Z 18020G25KT 17/11 A298 RMK A01 T01650113  RH  071%=      5-min Rain = 0
KAM2 241229Z 18017G22KT 17/11 A298 RMK A01 T01650113  RH  071%=      5-min Rain = 0
KAM2 241230Z 17020G25KT 16/11 A298 RMK A01 T01640112  RH  071%=      5-min Rain = 0
KAM2 241231Z 18019G24KT 17/11 A298 RMK A01 T01650113  RH  071%=      5-min Rain = 0
KAM2 241232Z 17019G25KT 17/11 A298 RMK A01 T01650113  RH  071%=      5-min Rain = 0
KAM2 241233Z 18022KT 17/11 A298 RMK A01 T01650113  RH  071%=      5-min Rain = 0
KAM2 241234Z 18022G27KT 17/11 A298 RMK A01 T01660113  RH  071%=      5-min Rain = 0
KAM2 241235Z 18019G24KT 17/11 A298 RMK A01 T01660113  RH  071%=      5-min Rain = 0
KAM2 241236Z 18017KT 17/11 A298 RMK A01 T01660113  RH  071%=      5-min Rain = 0
KAM2 241237Z 18019G24KT 17/11 A298 RMK A01 T01670113  RH  071%=      5-min Rain = 0
KAM2 241238Z 18021KT 17/11 A298 RMK A01 T01670113  RH  071%=      5-min Rain = 0
KAM2 241239Z 18019KT 17/11 A298 RMK A01 T01670113  RH  070%=      5-min Rain = 0
KAM2 241240Z 18018G23KT 17/11 A298 RMK A01 T01680113  RH  070%=      5-min Rain = 0
KAM2 241241Z 18018KT 17/11 A298 RMK A01 T01680113  RH  070%=      5-min Rain = 0
KAM2 241242Z 18020KT 17/11 A298 RMK A01 T01680113  RH  070%=      5-min Rain = 0
KAM2 241243Z 18018KT 17/11 A298 RMK A01 T01690113  RH  070%=      5-min Rain = 0
KAM2 241244Z 18021G26KT 17/11 A298 RMK A01 T01690113  RH  069%=      5-min Rain = 0
KAM2 241245Z 18019KT 17/11 A298 RMK A01 T01700113  RH  069%=      5-min Rain = 0
KAM2 241246Z 18018KT 17/11 A298 RMK A01 T01700113  RH  069%=      5-min Rain = 0
KAM2 241247Z 17022KT 17/11 A298 RMK A01 T01700113  RH  069%=      5-min Rain = 0
KAM2 241248Z 18021G26KT 17/11 A2979 RMK A01 T01700113  RH  069%=      5-min Rain = 0
KAM2 241249Z 18019G24KT 17/11 A298 RMK A01 T01710113  RH  069%=      5-min Rain = 0
KAM2 241250Z 18019KT 17/11 A298 RMK A01 T01710113  RH  068%=      5-min Rain = 0
KAM2 241251Z 17019G24KT 17/11 A2979 RMK A01 T01720113  RH  068%=      5-min Rain = 0
KAM2 241252Z 18021KT 17/11 A2979 RMK A01 T01720113  RH  068%=      5-min Rain = 0
KAM2 241253Z 18018KT 17/11 A2979 RMK A01 T01730113  RH  068%=      5-min Rain = 0
KAM2 241254Z 18019KT 17/11 A2979 RMK A01 T01740113  RH  067%=      5-min Rain = 0
KAM2 241255Z 18022KT 18/11 A2979 RMK A01 T01750113  RH  067%=      5-min Rain = 0
KAM2 241256Z 18020KT 18/11 A2979 RMK A01 T01750113  RH  067%=      5-min Rain = 0
KAM2 241257Z 18020KT 18/11 A2979 RMK A01 T01750113  RH  067%=      5-min Rain = 0
KAM2 241258Z 18019G25KT 18/11 A2979 RMK A01 T01750113  RH  067%=      5-min Rain = 0
KAM2 241259Z 18023KT 18/11 A2979 RMK A01 T01760114  RH  067%=      5-min Rain = 0
KAM2 241300Z 18024G30KT 18/11 A2979 RMK A01 T01760113  RH  067%=      5-min Rain = 0
KAM2 241301Z 18019KT 18/11 A2979 RMK A01 T01770114  RH  066%=      5-min Rain = 0
KAM2 241302Z 18021G27KT 18/11 A2979 RMK A01 T01770114  RH  066%=      5-min Rain = 0
KAM2 241303Z 18018G24KT 18/12 A2979 RMK A01 T01780115  RH  066%=      5-min Rain = 0
KAM2 241304Z 18020KT 18/11 A2979 RMK A01 T01790114  RH  066%=      5-min Rain = 0
KAM2 241305Z 18024G31KT 18/12 A2979 RMK A01 T01800115  RH  066%=      5-min Rain = 0
KAM2 241306Z 18024KT 18/11 A2979 RMK A01 T01800114  RH  065%=      5-min Rain = 0
KAM2 241307Z 18022G28KT 18/11 A2979 RMK A01 T01800114  RH  065%=      5-min Rain = 0
KAM2 241308Z 19020KT 18/12 A2979 RMK A01 T01810115  RH  065%=      5-min Rain = 0
KAM2 241309Z 18022KT 18/12 A2979 RMK A01 T01820115  RH  065%=      5-min Rain = 0
KAM2 241310Z 19020G26KT 18/12 A298 RMK A01 T01820115  RH  065%=      5-min Rain = 0
KAM2 241311Z 18021KT 18/12 A2979 RMK A01 T01820115  RH  065%=      5-min Rain = 0
KAM2 241312Z 18021G26KT 18/12 A2979 RMK A01 T01830116  RH  065%=      5-min Rain = 0
KAM2 241313Z 19020G25KT 18/12 A298 RMK A01 T01840116  RH  064%=      5-min Rain = 0
KAM2 241314Z 19018G23KT 18/12 A298 RMK A01 T01840116  RH  064%=      5-min Rain = 0
KAM2 241315Z 18017KT 19/12 A2979 RMK A01 T01850116  RH  064%=      5-min Rain = 0
KAM2 241316Z 19022KT 19/12 A298 RMK A01 T01860116  RH  064%=      5-min Rain = 0
KAM2 241317Z 18017G25KT 19/12 A298 RMK A01 T01870116  RH  063%=      5-min Rain = 0
KAM2 241318Z 18020KT 19/12 A298 RMK A01 T01880117  RH  063%=      5-min Rain = 0
KAM2 241319Z 19019G24KT 19/12 A298 RMK A01 T01890117  RH  063%=      5-min Rain = 0
KAM2 241320Z 18020G25KT 19/12 A298 RMK A01 T01900117  RH  063%=      5-min Rain = 0
KAM2 241321Z 19022G27KT 19/12 A298 RMK A01 T01900117  RH  062%=      5-min Rain = 0
KAM2 241322Z 19017G23KT 19/12 A298 RMK A01 T01900117  RH  063%=      5-min Rain = 0
KAM2 241323Z 19014G19KT 19/12 A298 RMK A01 T01900117  RH  063%=      5-min Rain = 0
KAM2 241324Z 19018KT 19/12 A298 RMK A01 T01910118  RH  062%=      5-min Rain = 0
KAM2 241325Z 19018KT 19/12 A298 RMK A01 T01920117  RH  062%=      5-min Rain = 0
KAM2 241326Z 19013G20KT 19/12 A2981 RMK A01 T01920117  RH  062%=      5-min Rain = 0
KAM2 241327Z 19014G22KT 19/12 A2981 RMK A01 T01930118  RH  062%=      5-min Rain = 0
KAM2 241328Z 20018KT 19/12 A2981 RMK A01 T01930118  RH  062%=      5-min Rain = 0
KAM2 241329Z 20017G22KT 19/12 A2981 RMK A01 T01930118  RH  062%=      5-min Rain = 0
KAM2 241330Z 19017G22KT 19/12 A2981 RMK A01 T01940118  RH  062%=      5-min Rain = 0
KAM2 241331Z 20019KT 19/12 A2981 RMK A01 T01940118  RH  061%=      5-min Rain = 0
KAM2 241332Z 20019KT 19/12 A2981 RMK A01 T01940119  RH  061%=      5-min Rain = 0
KAM2 241333Z 20014KT 20/12 A2981 RMK A01 T01950119  RH  061%=      5-min Rain = 0
KAM2 241334Z 21011KT 20/12 A2982 RMK A01 T01960119  RH  061%=      5-min Rain = 0
KAM2 241335Z 21011KT 20/12 A2982 RMK A01 T01970120  RH  061%=      5-min Rain = 0
KAM2 241336Z 21012G18KT 20/12 A2982 RMK A01 T01990120  RH  060%=      5-min Rain = 0
KAM2 241337Z 20013KT 20/12 A2982 RMK A01 T02000120  RH  060%=      5-min Rain = 0
KAM2 241338Z 20011KT 20/12 A2982 RMK A01 T02000121  RH  060%=      5-min Rain = 0
KAM2 241339Z 20015KT 20/12 A2982 RMK A01 T02010121  RH  060%=      5-min Rain = 0
KAM2 241340Z 21016G21KT 20/12 A2982 RMK A01 T02020121  RH  060%=      5-min Rain = 0
KAM2 241341Z 20016G22KT 20/12 A2982 RMK A01 T02020121  RH  060%=      5-min Rain = 0
KAM2 241342Z 21016G22KT 20/12 A2982 RMK A01 T02020121  RH  060%=      5-min Rain = 0
KAM2 241343Z 20012KT 20/12 A2982 RMK A01 T02020121  RH  060%=      5-min Rain = 0
KAM2 241344Z 20019KT 20/12 A2982 RMK A01 T02020122  RH  060%=      5-min Rain = 0
KAM2 241345Z 19017G22KT 20/12 A2982 RMK A01 T02030121  RH  059%=      5-min Rain = 0
KAM2 241346Z 19014KT 20/12 A2982 RMK A01 T02030122  RH  060%=      5-min Rain = 0
KAM2 241347Z 20018KT 20/12 A2982 RMK A01 T02030122  RH  060%=      5-min Rain = 0
KAM2 241348Z 19017G22KT 20/12 A2982 RMK A01 T02030121  RH  059%=      5-min Rain = 0
KAM2 241349Z 20017KT 20/12 A2982 RMK A01 T02030122  RH  059%=      5-min Rain = 0
KAM2 241350Z 20016KT 20/12 A2982 RMK A01 T02030121  RH  059%=      5-min Rain = 0
KAM2 241351Z 20014KT 20/12 A2982 RMK A01 T02040122  RH  059%=      5-min Rain = 0
KAM2 241352Z 20013KT 21/12 A2982 RMK A01 T02050122  RH  059%=      5-min Rain = 0
KAM2 241353Z 21013G20KT 21/12 A2982 RMK A01 T02060124  RH  059%=      5-min Rain = 0
KAM2 241354Z 21020KT 21/12 A2981 RMK A01 T02090124  RH  058%=      5-min Rain = 0
KAM2 241355Z 20018KT 21/12 A2981 RMK A01 T02080123  RH  058%=      5-min Rain = 0
KAM2 241356Z 20015KT 21/12 A2981 RMK A01 T02080123  RH  058%=      5-min Rain = 0
KAM2 241357Z 20018KT 21/12 A2981 RMK A01 T02090124  RH  058%=      5-min Rain = 0
KAM2 241358Z 21021KT 21/12 A2981 RMK A01 T02100124  RH  058%=      5-min Rain = 0
KAM2 241359Z 21020KT 21/12 A2981 RMK A01 T02100124  RH  058%=      5-min Rain = 0
KAM2 241400Z 21016KT 21/12 A2981 RMK A01 T02100124  RH  058%=      5-min Rain = 0
KAM2 241401Z 21017G22KT 21/13 A2982 RMK A01 T02110125  RH  058%=      5-min Rain = 0
KAM2 241402Z 21019G24KT 21/13 A2981 RMK A01 T02130125  RH  057%=      5-min Rain = 0
KAM2 241403Z 21015KT 21/13 A2982 RMK A01 T02130125  RH  057%=      5-min Rain = 0
KAM2 241404Z 21017G23KT 21/13 A2982 RMK A01 T02140126  RH  057%=      5-min Rain = 0
KAM2 241405Z 20018KT 22/13 A2982 RMK A01 T02150126  RH  057%=      5-min Rain = 0
KAM2 241406Z 21017KT 22/13 A2982 RMK A01 T02160126  RH  057%=      5-min Rain = 0
KAM2 241407Z 21018KT 22/13 A2982 RMK A01 T02160126  RH  057%=      5-min Rain = 0
KAM2 241408Z 22014G20KT 22/13 A2982 RMK A01 T02160126  RH  057%=      5-min Rain = 0
KAM2 241409Z 21014G21KT 22/13 A2982 RMK A01 T02160127  RH  057%=      5-min Rain = 0
KAM2 241410Z 21019G24KT 22/13 A2982 RMK A01 T02180127  RH  056%=      5-min Rain = 0
KAM2 241411Z 22019G27KT 22/13 A2982 RMK A01 T02180126  RH  056%=      5-min Rain = 0
KAM2 241412Z 22017G24KT 22/13 A2982 RMK A01 T02160126  RH  057%=      5-min Rain = 0
KAM2 241413Z 21018G24KT 22/13 A2982 RMK A01 T02160126  RH  057%=      5-min Rain = 0
KAM2 241414Z 21012KT 22/13 A2982 RMK A01 T02160127  RH  057%=      5-min Rain = 0
KAM2 241415Z 21019KT 22/13 A2982 RMK A01 T02170128  RH  057%=      5-min Rain = 0
KAM2 241416Z 22017G24KT 22/13 A2982 RMK A01 T02180127  RH  056%=      5-min Rain = 0
KAM2 241417Z 21018KT 22/13 A2982 RMK A01 T02180127  RH  056%=      5-min Rain = 0
KAM2 241418Z 21018KT 22/13 A2982 RMK A01 T02180127  RH  056%=      5-min Rain = 0
KAM2 241419Z 21016KT 22/13 A2982 RMK A01 T02180127  RH  056%=      5-min Rain = 0
KAM2 241420Z 22016KT 22/13 A2982 RMK A01 T02180128  RH  056%=      5-min Rain = 0
KAM2 241421Z 22014KT 22/13 A2982 RMK A01 T02190128  RH  056%=      5-min Rain = 0
KAM2 241422Z 22013KT 22/13 A2982 RMK A01 T02190128  RH  056%=      5-min Rain = 0
KAM2 241423Z 22014G19KT 22/13 A2982 RMK A01 T02200129  RH  056%=      5-min Rain = 0
KAM2 241424Z 22015KT 22/13 A2982 RMK A01 T02210129  RH  056%=      5-min Rain = 0
KAM2 241425Z 23013G19KT 22/13 A2982 RMK A01 T02230129  RH  055%=      5-min Rain = 0
KAM2 241426Z 21010G15KT 22/13 A2982 RMK A01 T02230131  RH  056%=      5-min Rain = 0
KAM2 241427Z 21016G23KT 23/13 A2982 RMK A01 T02260132  RH  055%=      5-min Rain = 0
KAM2 241428Z 22021KT 23/13 A2982 RMK A01 T02270130  RH  054%=      5-min Rain = 0
KAM2 241429Z 21019G24KT 23/13 A2982 RMK A01 T02260129  RH  054%=      5-min Rain = 0
KAM2 241430Z 22017G23KT 23/13 A2982 RMK A01 T02250130  RH  055%=      5-min Rain = 0
KAM2 241431Z 22017KT 22/13 A2982 RMK A01 T02240129  RH  055%=      5-min Rain = 0
KAM2 241432Z 22019G24KT 22/13 A2982 RMK A01 T02240129  RH  055%=      5-min Rain = 0
KAM2 241433Z 22019G25KT 22/13 A2982 RMK A01 T02240129  RH  055%=      5-min Rain = 0
KAM2 241434Z 22017KT 22/13 A2982 RMK A01 T02240130  RH  055%=      5-min Rain = 0
KAM2 241435Z 21017G22KT 23/13 A2981 RMK A01 T02260130  RH  055%=      5-min Rain = 0
KAM2 241436Z 21018KT 23/13 A2981 RMK A01 T02270130  RH  054%=      5-min Rain = 0
KAM2 241437Z 21015G20KT 23/13 A2981 RMK A01 T02280131  RH  054%=      5-min Rain = 0
KAM2 241438Z 20018G23KT 23/13 A2981 RMK A01 T02300131  RH  054%=      5-min Rain = 0
KAM2 241439Z 22015KT 23/13 A2981 RMK A01 T02310131  RH  053%=      5-min Rain = 0
KAM2 241440Z 21020G27KT 23/13 A2981 RMK A01 T02320131  RH  053%=      5-min Rain = 0
KAM2 241441Z 22020KT 23/13 A2981 RMK A01 T02320129  RH  052%=      5-min Rain = 0
KAM2 241442Z 22020KT 23/13 A2981 RMK A01 T02310129  RH  053%=      5-min Rain = 0
KAM2 241443Z 21018G24KT 23/13 A2981 RMK A01 T02300129  RH  053%=      5-min Rain = 0
KAM2 241444Z 21020G25KT 23/13 A2981 RMK A01 T02300129  RH  053%=      5-min Rain = 0
KAM2 241445Z 21021G27KT 23/13 A2981 RMK A01 T02300129  RH  053%=      5-min Rain = 0
KAM2 241446Z 22017G26KT 23/13 A2981 RMK A01 T02310129  RH  053%=      5-min Rain = 0
KAM2 241447Z 21021G29KT 23/13 A2981 RMK A01 T02310128  RH  052%=      5-min Rain = 0
KAM2 241448Z 22017KT 23/13 A2981 RMK A01 T02300128  RH  052%=      5-min Rain = 0
KAM2 241449Z 22017G24KT 23/13 A2981 RMK A01 T02310129  RH  053%=      5-min Rain = 0
KAM2 241450Z 22023KT 23/13 A2981 RMK A01 T02320128  RH  052%=      5-min Rain = 0
KAM2 241451Z 22017G24KT 23/13 A2981 RMK A01 T02320128  RH  052%=      5-min Rain = 0
KAM2 241452Z 22017G24KT 23/13 A2982 RMK A01 T02320128  RH  052%=      5-min Rain = 0
KAM2 241453Z 22014G21KT 23/13 A2982 RMK A01 T02320128  RH  052%=      5-min Rain = 0
KAM2 241454Z 21015KT 23/13 A2982 RMK A01 T02330129  RH  052%=      5-min Rain = 0
KAM2 241455Z 22016G21KT 24/13 A2981 RMK A01 T02360127  RH  051%=      5-min Rain = 0
KAM2 241456Z 21015G23KT 24/13 A2982 RMK A01 T02360128  RH  050%=      5-min Rain = 0
KAM2 241457Z 21015KT 24/13 A2981 RMK A01 T02370129  RH  051%=      5-min Rain = 0
KAM2 241458Z 21019G25KT 24/13 A2981 RMK A01 T02380131  RH  051%=      5-min Rain = 0
KAM2 241459Z 22019KT 24/13 A2981 RMK A01 T02370129  RH  051%=      5-min Rain = 0
KAM2 241500Z 21017KT 24/13 A2981 RMK A01 T02360129  RH  051%=      5-min Rain = 0
KAM2 241501Z 22016G21KT 24/13 A2981 RMK A01 T02380129  RH  051%=      5-min Rain = 0
KAM2 241502Z 22016G24KT 24/13 A2981 RMK A01 T02400129  RH  050%=      5-min Rain = 0
KAM2 241503Z 21022KT 24/13 A2981 RMK A01 T02410128  RH  049%=      5-min Rain = 0
KAM2 241504Z 21020G25KT 24/13 A2981 RMK A01 T02390128  RH  050%=      5-min Rain = 0
KAM2 241505Z 21020G25KT 24/13 A2981 RMK A01 T02390127  RH  050%=      5-min Rain = 0
KAM2 241506Z 21018G23KT 24/13 A2981 RMK A01 T02390127  RH  049%=      5-min Rain = 0
KAM2 241507Z 22016G21KT 24/13 A2981 RMK A01 T02410128  RH  049%=      5-min Rain = 0
KAM2 241508Z 22013G19KT 24/13 A2981 RMK A01 T02420129  RH  049%=      5-min Rain = 0
KAM2 241509Z 22016KT 24/13 A2981 RMK A01 T02440129  RH  048%=      5-min Rain = 0
KAM2 241510Z 22015G20KT 24/13 A2981 RMK A01 T02440127  RH  048%=      5-min Rain = 0
KAM2 241511Z 21015G21KT 24/13 A2981 RMK A01 T02420127  RH  048%=      5-min Rain = 0
KAM2 241512Z 22015KT 24/13 A2981 RMK A01 T02420127  RH  049%=      5-min Rain = 0
KAM2 241513Z 22015KT 24/13 A2981 RMK A01 T02430127  RH  048%=      5-min Rain = 0
KAM2 241514Z 23009G15KT 24/13 A2982 RMK A01 T02440129  RH  049%=      5-min Rain = 0
KAM2 241515Z 23015KT 25/13 A2981 RMK A01 T02470128  RH  048%=      5-min Rain = 0
KAM2 241516Z 23017KT 25/12 A2982 RMK A01 T02490121  RH  045%=      5-min Rain = 0
KAM2 241517Z 23013G19KT 25/12 A2982 RMK A01 T02480117  RH  044%=      5-min Rain = 0
KAM2 241518Z 22015G21KT 25/12 A2981 RMK A01 T02470117  RH  044%=      5-min Rain = 0
KAM2 241519Z 21016KT 25/12 A2981 RMK A01 T02470116  RH  044%=      5-min Rain = 0
KAM2 241520Z 23011G19KT 25/12 A2982 RMK A01 T02480120  RH  045%=      5-min Rain = 0
KAM2 241521Z 23017KT 25/11 A2981 RMK A01 T02500114  RH  043%=      5-min Rain = 0
KAM2 241522Z 23015G20KT 25/11 A2981 RMK A01 T02480112  RH  043%=      5-min Rain = 0
KAM2 241523Z 22016KT 25/11 A2981 RMK A01 T02470113  RH  043%=      5-min Rain = 0
KAM2 241524Z 23017KT 25/11 A2981 RMK A01 T02480110  RH  042%=      5-min Rain = 0
KAM2 241525Z 22020KT 25/11 A2981 RMK A01 T02480112  RH  042%=      5-min Rain = 0
KAM2 241526Z 22016KT 25/11 A2981 RMK A01 T02480113  RH  043%=      5-min Rain = 0
KAM2 241527Z 23016KT 25/11 A2981 RMK A01 T02480113  RH  043%=      5-min Rain = 0
KAM2 241528Z 22016G21KT 25/11 A2981 RMK A01 T02480113  RH  043%=      5-min Rain = 0
KAM2 241529Z 24016KT 25/12 A2982 RMK A01 T02480115  RH  043%=      5-min Rain = 0
KAM2 241530Z 24017G22KT 25/11 A2982 RMK A01 T02490112  RH  042%=      5-min Rain = 0
KAM2 241531Z 25017KT 25/11 A2982 RMK A01 T02500109  RH  041%=      5-min Rain = 0
KAM2 241532Z 24019KT 25/11 A2981 RMK A01 T02520105  RH  040%=      5-min Rain = 0
KAM2 241533Z 24018KT 25/10 A2981 RMK A01 T02500104  RH  040%=      5-min Rain = 0
KAM2 241534Z 25018KT 25/11 A2982 RMK A01 T02500109  RH  041%=      5-min Rain = 0
KAM2 241535Z 25015KT 25/11 A2982 RMK A01 T02500108  RH  041%=      5-min Rain = 0
KAM2 241536Z 25012KT 25/11 A2982 RMK A01 T02510107  RH  040%=      5-min Rain = 0
KAM2 241537Z 25013KT 25/11 A2982 RMK A01 T02530107  RH  040%=      5-min Rain = 0
KAM2 241538Z 24015KT 25/11 A2982 RMK A01 T02540109  RH  040%=      5-min Rain = 0
KAM2 241539Z 24015KT 25/11 A2982 RMK A01 T02540108  RH  040%=      5-min Rain = 0
KAM2 241540Z 24015KT 26/11 A2982 RMK A01 T02550109  RH  040%=      5-min Rain = 0
KAM2 241541Z 25016KT 25/11 A2982 RMK A01 T02540112  RH  041%=      5-min Rain = 0
KAM2 241542Z 25017KT 25/11 A2982 RMK A01 T02540111  RH  041%=      5-min Rain = 0
KAM2 241543Z 26016KT 26/11 A2981 RMK A01 T02550111  RH  041%=      5-min Rain = 0
KAM2 241544Z 26015KT 26/11 A2982 RMK A01 T02560112  RH  040%=      5-min Rain = 0
KAM2 241545Z 25011G16KT 26/11 A2982 RMK A01 T02560112  RH  040%=      5-min Rain = 0
KAM2 241546Z 23013KT 26/11 A2981 RMK A01 T02560111  RH  040%=      5-min Rain = 0
KAM2 241547Z 22015KT 26/11 A2981 RMK A01 T02560108  RH  040%=      5-min Rain = 0
KAM2 241548Z 24014KT 26/11 A2981 RMK A01 T02550111  RH  040%=      5-min Rain = 0
KAM2 241549Z 24013KT 25/11 A2981 RMK A01 T02540107  RH  040%=      5-min Rain = 0
KAM2 241550Z 23013G18KT 25/11 A2981 RMK A01 T02530110  RH  041%=      5-min Rain = 0
KAM2 241551Z 24011KT 26/11 A2981 RMK A01 T02560109  RH  040%=      5-min Rain = 0
KAM2 241552Z 25014KT 26/11 A2981 RMK A01 T02590112  RH  040%=      5-min Rain = 0
KAM2 241553Z 24014KT 26/11 A2981 RMK A01 T02610112  RH  039%=      5-min Rain = 0
KAM2 241554Z 25014KT 26/11 A2981 RMK A01 T02590111  RH  040%=      5-min Rain = 0
KAM2 241555Z 25010KT 26/11 A2981 RMK A01 T02570113  RH  040%=      5-min Rain = 0
KAM2 241556Z 24013G19KT 26/11 A2981 RMK A01 T02600112  RH  039%=      5-min Rain = 0
KAM2 241557Z 24015KT 26/11 A2981 RMK A01 T02600112  RH  039%=      5-min Rain = 0
KAM2 241558Z 24014KT 26/11 A2981 RMK A01 T02600111  RH  039%=      5-min Rain = 0
KAM2 241559Z 24014KT 26/11 A2981 RMK A01 T02590112  RH  040%=      5-min Rain = 0
KAM2 241600Z 24012KT 26/11 A2981 RMK A01 T02580112  RH  040%=      5-min Rain = 0
KAM2 241601Z 24015KT 26/11 A2981 RMK A01 T02580110  RH  040%=      5-min Rain = 0
KAM2 241602Z 24013KT 26/11 A2981 RMK A01 T02580109  RH  039%=      5-min Rain = 0
KAM2 241603Z 22012KT 26/11 A2981 RMK A01 T02580109  RH  039%=      5-min Rain = 0
KAM2 241604Z 23013KT 26/11 A2981 RMK A01 T02570109  RH  039%=      5-min Rain = 0
KAM2 241605Z 26012KT 26/11 A2981 RMK A01 T02570111  RH  040%=      5-min Rain = 0
KAM2 241606Z 26011KT 26/11 A2981 RMK A01 T02610110  RH  039%=      5-min Rain = 0
KAM2 241607Z 26010KT 26/11 A2981 RMK A01 T02620106  RH  038%=      5-min Rain = 0
KAM2 241608Z 25010G15KT 26/11 A2981 RMK A01 T02610105  RH  038%=      5-min Rain = 0
KAM2 241609Z 23011KT 26/11 A2981 RMK A01 T02640105  RH  037%=      5-min Rain = 0
KAM2 241610Z 23012KT 27/11 A2981 RMK A01 T02650105  RH  037%=      5-min Rain = 0
KAM2 241611Z 24011G16KT 26/11 A2981 RMK A01 T02640107  RH  037%=      5-min Rain = 0
KAM2 241612Z 24011KT 27/11 A2981 RMK A01 T02670108  RH  037%=      5-min Rain = 0
KAM2 241613Z 23008KT 27/11 A2981 RMK A01 T02700111  RH  037%=      5-min Rain = 0
KAM2 241614Z 22009KT 27/11 A2981 RMK A01 T02710109  RH  036%=      5-min Rain = 0
KAM2 241615Z 23006KT 27/11 A2981 RMK A01 T02660109  RH  038%=      5-min Rain = 0
KAM2 241616Z 26009G15KT 27/11 A2981 RMK A01 T02650111  RH  038%=      5-min Rain = 0
KAM2 241617Z 25009KT 27/11 A2981 RMK A01 T02660109  RH  037%=      5-min Rain = 0
KAM2 241618Z 26012KT 27/11 A2981 RMK A01 T02650109  RH  037%=      5-min Rain = 0
KAM2 241619Z 27010G15KT 27/11 A2981 RMK A01 T02650111  RH  038%=      5-min Rain = 0
KAM2 241620Z 27010KT 27/11 A2981 RMK A01 T02680113  RH  038%=      5-min Rain = 0
KAM2 241621Z 26012KT 27/12 A2981 RMK A01 T02700115  RH  038%=      5-min Rain = 0
KAM2 241622Z 25013KT 27/12 A2981 RMK A01 T02680115  RH  038%=      5-min Rain = 0
KAM2 241623Z 25012KT 27/12 A2981 RMK A01 T02650115  RH  039%=      5-min Rain = 0
KAM2 241624Z 26012KT 27/12 A2981 RMK A01 T02650116  RH  039%=      5-min Rain = 0
KAM2 241625Z 28010KT 27/12 A2981 RMK A01 T02650117  RH  040%=      5-min Rain = 0
KAM2 241626Z 29009KT 27/12 A2981 RMK A01 T02670116  RH  039%=      5-min Rain = 0
KAM2 241627Z 29009KT 27/12 A2981 RMK A01 T02670116  RH  039%=      5-min Rain = 0
KAM2 241628Z 29006KT 27/12 A2981 RMK A01 T02660117  RH  039%=      5-min Rain = 0
KAM2 241629Z 30009KT 27/12 A2981 RMK A01 T02670118  RH  040%=      5-min Rain = 0
KAM2 241630Z 30007KT 27/12 A2981 RMK A01 T02680117  RH  039%=      5-min Rain = 0
KAM2 241631Z 30009KT 27/12 A2981 RMK A01 T02680118  RH  039%=      5-min Rain = 0
KAM2 241632Z 30012KT 27/11 A2981 RMK A01 T02700107  RH  036%=      5-min Rain = 0
KAM2 241633Z 30011KT 27/10 A2981 RMK A01 T02700100  RH  034%=      5-min Rain = 0
KAM2 241634Z 30014KT 27/10 A2981 RMK A01 T02710100  RH  034%=      5-min Rain = 0
KAM2 241635Z 32013KT 27/10 A2981 RMK A01 T02710098  RH  034%=      5-min Rain = 0
KAM2 241636Z 31013KT 27/10 A2981 RMK A01 T02690098  RH  034%=      5-min Rain = 0
KAM2 241637Z 31012KT 27/10 A2981 RMK A01 T02690098  RH  034%=      5-min Rain = 0
KAM2 241638Z 28012KT 27/10 A2981 RMK A01 T02720097  RH  033%=      5-min Rain = 0
KAM2 241639Z 27010KT 27/10 A2981 RMK A01 T02710099  RH  034%=      5-min Rain = 0
KAM2 241640Z 27010G15KT 27/10 A2981 RMK A01 T02710099  RH  034%=      5-min Rain = 0
KAM2 241641Z 29011KT 27/10 A2981 RMK A01 T02730096  RH  033%=      5-min Rain = 0
KAM2 241642Z 29010KT 27/09 A2981 RMK A01 T02710091  RH  032%=      5-min Rain = 0
KAM2 241643Z 28013KT 27/10 A2981 RMK A01 T02700096  RH  033%=      5-min Rain = 0
KAM2 241644Z 27011KT 27/09 A2981 RMK A01 T02690094  RH  033%=      5-min Rain = 0
KAM2 241645Z 29011KT 27/10 A2981 RMK A01 T02680095  RH  034%=      5-min Rain = 0
KAM2 241646Z 28009KT 27/09 A2981 RMK A01 T02710092  RH  033%=      5-min Rain = 0
KAM2 241647Z 29009KT 27/09 A2981 RMK A01 T02690092  RH  033%=      5-min Rain = 0
KAM2 241648Z 29010KT 27/09 A2981 RMK A01 T02720093  RH  032%=      5-min Rain = 0
KAM2 241649Z 27007KT 27/10 A2981 RMK A01 T02730097  RH  033%=      5-min Rain = 0
KAM2 241650Z 29011KT 28/10 A2981 RMK A01 T02750097  RH  033%=      5-min Rain = 0
KAM2 241651Z 29013KT 28/09 A2981 RMK A01 T02750094  RH  032%=      5-min Rain = 0
KAM2 241652Z 29009KT 27/09 A2981 RMK A01 T02730092  RH  032%=      5-min Rain = 0
KAM2 241653Z 30013G18KT 27/10 A2981 RMK A01 T02730096  RH  033%=      5-min Rain = 0
KAM2 241654Z 29010KT 27/09 A2981 RMK A01 T02740094  RH  032%=      5-min Rain = 0
KAM2 241655Z 27011KT 28/10 A2982 RMK A01 T02750097  RH  033%=      5-min Rain = 0
KAM2 241656Z 24009KT 28/10 A2982 RMK A01 T02770095  RH  032%=      5-min Rain = 0
KAM2 241657Z 26011KT 28/10 A2982 RMK A01 T02750096  RH  032%=      5-min Rain = 0
KAM2 241658Z 26010KT 28/10 A2982 RMK A01 T02750098  RH  033%=      5-min Rain = 0
KAM2 241659Z 26013KT 28/09 A2982 RMK A01 T02750094  RH  032%=      5-min Rain = 0
KAM2 241700Z 25010KT 27/09 A2982 RMK A01 T02740092  RH  032%=      5-min Rain = 0
KAM2 241701Z 27010G15KT 27/09 A2982 RMK A01 T02700092  RH  033%=      5-min Rain = 0
KAM2 241702Z 28014KT 27/09 A2982 RMK A01 T02700091  RH  032%=      5-min Rain = 0
KAM2 241703Z 28012KT 27/09 A2982 RMK A01 T02720093  RH  032%=      5-min Rain = 0
KAM2 241704Z 29013KT 28/09 A2982 RMK A01 T02750091  RH  032%=      5-min Rain = 0
KAM2 241705Z 26007G12KT 27/09 A2982 RMK A01 T02740094  RH  032%=      5-min Rain = 0
KAM2 241706Z 27012KT 28/09 A2982 RMK A01 T02770094  RH  032%=      5-min Rain = 0
KAM2 241707Z 28011KT 28/09 A2982 RMK A01 T02760089  RH  031%=      5-min Rain = 0
KAM2 241708Z 29005G10KT 27/09 A2982 RMK A01 T02710086  RH  031%=      5-min Rain = 0
KAM2 241709Z 28005KT 27/09 A2982 RMK A01 T02680088  RH  032%=      5-min Rain = 0
KAM2 241710Z 29010KT 27/09 A2982 RMK A01 T02680089  RH  032%=      5-min Rain = 0
KAM2 241711Z 27010KT 27/09 A2982 RMK A01 T02690090  RH  032%=      5-min Rain = 0
KAM2 241712Z 29012KT 27/09 A2982 RMK A01 T02720091  RH  032%=      5-min Rain = 0
KAM2 241713Z 29009KT 27/09 A2982 RMK A01 T02710090  RH  032%=      5-min Rain = 0
KAM2 241714Z 26013KT 27/09 A2982 RMK A01 T02730094  RH  032%=      5-min Rain = 0
KAM2 241715Z 25012KT 28/09 A2982 RMK A01 T02750092  RH  032%=      5-min Rain = 0
KAM2 241716Z 26008KT 27/09 A2982 RMK A01 T02720091  RH  032%=      5-min Rain = 0
KAM2 241717Z 24010KT 27/09 A2982 RMK A01 T02720093  RH  032%=      5-min Rain = 0
KAM2 241718Z 23007KT 27/09 A2982 RMK A01 T02730091  RH  032%=      5-min Rain = 0
KAM2 241719Z 26009KT 27/09 A2982 RMK A01 T02730092  RH  032%=      5-min Rain = 0
KAM2 241720Z 27012KT 27/09 A2982 RMK A01 T02740091  RH  032%=      5-min Rain = 0
KAM2 241721Z 28010KT 28/09 A2982 RMK A01 T02750092  RH  032%=      5-min Rain = 0
KAM2 241722Z 29008KT 28/09 A2982 RMK A01 T02770089  RH  031%=      5-min Rain = 0
KAM2 241723Z 29008G13KT 27/09 A2982 RMK A01 T02740091  RH  032%=      5-min Rain = 0
KAM2 241724Z 27012KT 28/09 A2982 RMK A01 T02760089  RH  031%=      5-min Rain = 0
KAM2 241725Z 27011KT 28/09 A2982 RMK A01 T02750087  RH  031%=      5-min Rain = 0
KAM2 241726Z 27008G13KT 27/09 A2982 RMK A01 T02720086  RH  031%=      5-min Rain = 0
KAM2 241727Z 30009KT 27/09 A2982 RMK A01 T02690089  RH  032%=      5-min Rain = 0
KAM2 241728Z 30009KT 27/09 A2982 RMK A01 T02720089  RH  032%=      5-min Rain = 0
KAM2 241729Z 31008KT 27/09 A2982 RMK A01 T02740092  RH  032%=      5-min Rain = 0
KAM2 241730Z 28009KT 28/09 A2982 RMK A01 T02760092  RH  032%=      5-min Rain = 0
KAM2 241731Z 27006KT 28/09 A2982 RMK A01 T02760093  RH  032%=      5-min Rain = 0
KAM2 241732Z 26009KT 28/10 A2982 RMK A01 T02770097  RH  032%=      5-min Rain = 0
KAM2 241733Z 28007KT 28/10 A2982 RMK A01 T02800097  RH  032%=      5-min Rain = 0
KAM2 241734Z 29009KT 28/10 A2982 RMK A01 T02840099  RH  031%=      5-min Rain = 0
KAM2 241735Z 29007KT 28/10 A2982 RMK A01 T02840095  RH  031%=      5-min Rain = 0
KAM2 241736Z 29004KT 28/09 A2982 RMK A01 T02790091  RH  031%=      5-min Rain = 0
KAM2 241737Z 25009G14KT 28/09 A2982 RMK A01 T02760090  RH  031%=      5-min Rain = 0
KAM2 241738Z 25011KT 28/09 A2982 RMK A01 T02760090  RH  031%=      5-min Rain = 0
KAM2 241739Z 22007KT 28/09 A2982 RMK A01 T02750091  RH  031%=      5-min Rain = 0
KAM2 241740Z 25007KT 27/09 A2982 RMK A01 T02740092  RH  032%=      5-min Rain = 0
KAM2 241741Z 25006KT 28/10 A2982 RMK A01 T02750097  RH  033%=      5-min Rain = 0
KAM2 241742Z 25008KT 28/10 A2982 RMK A01 T02780096  RH  032%=      5-min Rain = 0
KAM2 241743Z 25011KT 28/10 A2982 RMK A01 T02790096  RH  032%=      5-min Rain = 0
KAM2 241744Z 26012KT 28/09 A2982 RMK A01 T02790094  RH  031%=      5-min Rain = 0
KAM2 241745Z 25007KT 28/09 A2982 RMK A01 T02790089  RH  030%=      5-min Rain = 0
KAM2 241746Z 22007KT 28/09 A2982 RMK A01 T02790090  RH  030%=      5-min Rain = 0
KAM2 241747Z 25010G15KT 28/10 A2982 RMK A01 T02810097  RH  032%=      5-min Rain = 0
KAM2 241748Z 25013KT 28/09 A2982 RMK A01 T02820093  RH  031%=      5-min Rain = 0
KAM2 241749Z 27009KT 28/09 A2982 RMK A01 T02820090  RH  030%=      5-min Rain = 0
KAM2 241750Z 27008KT 28/09 A2982 RMK A01 T02800088  RH  030%=      5-min Rain = 0
KAM2 241751Z 28004KT 28/10 A2982 RMK A01 T02770095  RH  032%=      5-min Rain = 0
KAM2 241752Z 27008KT 27/10 A2982 RMK A01 T02730098  RH  033%=      5-min Rain = 0
KAM2 241753Z 27010KT 28/11 A2982 RMK A01 T02770106  RH  035%=      5-min Rain = 0
KAM2 241754Z 30009KT 28/11 A2982 RMK A01 T02800106  RH  034%=      5-min Rain = 0
KAM2 241755Z 27008KT 28/10 A2982 RMK A01 T02810104  RH  033%=      5-min Rain = 0
KAM2 241756Z 29006KT 28/10 A2982 RMK A01 T02800098  RH  032%=      5-min Rain = 0
KAM2 241757Z 30005KT 28/10 A2982 RMK A01 T02790104  RH  034%=      5-min Rain = 0
KAM2 241758Z 26007G15KT 28/10 A2982 RMK A01 T02790104  RH  034%=      5-min Rain = 0
KAM2 241759Z 27012KT 28/10 A2982 RMK A01 T02800100  RH  032%=      5-min Rain = 0
KAM2 241800Z 26014KT 28/10 A2982 RMK A01 T02810102  RH  033%=      5-min Rain = 0
KAM2 241801Z 28010KT 28/11 A2982 RMK A01 T02800105  RH  034%=      5-min Rain = 0
KAM2 241802Z 27011KT 28/11 A2982 RMK A01 T02800108  RH  034%=      5-min Rain = 0
KAM2 241803Z 26007KT 28/11 A2982 RMK A01 T02810107  RH  034%=      5-min Rain = 0
KAM2 241804Z 26008G13KT 28/11 A2982 RMK A01 T02830108  RH  034%=      5-min Rain = 0
KAM2 241805Z 25010KT 28/10 A2982 RMK A01 T02840102  RH  032%=      5-min Rain = 0
KAM2 241806Z 24007KT 28/10 A2982 RMK A01 T02820099  RH  032%=      5-min Rain = 0
KAM2 241807Z 25006KT 28/10 A2982 RMK A01 T02800100  RH  033%=      5-min Rain = 0
KAM2 241808Z 29005KT 28/10 A2982 RMK A01 T02820101  RH  032%=      5-min Rain = 0
KAM2 241809Z 29007KT 28/10 A2981 RMK A01 T02830101  RH  032%=      5-min Rain = 0
KAM2 241810Z 26010G15KT 28/10 A2981 RMK A01 T02830101  RH  032%=      5-min Rain = 0
KAM2 241811Z 26011KT 28/10 A2981 RMK A01 T02840095  RH  031%=      5-min Rain = 0
KAM2 241812Z 27007KT 29/09 A2982 RMK A01 T02860094  RH  030%=      5-min Rain = 0
KAM2 241813Z 28008KT 29/09 A2981 RMK A01 T02860094  RH  030%=      5-min Rain = 0
KAM2 241814Z 28010KT 29/09 A2981 RMK A01 T02860094  RH  030%=      5-min Rain = 0
KAM2 241815Z 27010KT 28/10 A2981 RMK A01 T02840095  RH  031%=      5-min Rain = 0
KAM2 241816Z 27009KT 28/10 A2981 RMK A01 T02840098  RH  031%=      5-min Rain = 0
KAM2 241817Z 25006KT 28/10 A2981 RMK A01 T02830099  RH  032%=      5-min Rain = 0
KAM2 241818Z 28008G16KT 28/11 A2981 RMK A01 T02800106  RH  034%=      5-min Rain = 0
KAM2 241819Z 29013KT 28/11 A2981 RMK A01 T02830114  RH  035%=      5-min Rain = 0
KAM2 241820Z 28010KT 29/11 A2981 RMK A01 T02890113  RH  034%=      5-min Rain = 0
KAM2 241821Z 29008KT 29/11 A2981 RMK A01 T02900110  RH  033%=      5-min Rain = 0
KAM2 241822Z 30008KT 29/11 A2981 RMK A01 T02880110  RH  033%=      5-min Rain = 0
KAM2 241823Z 29006KT 29/11 A2981 RMK A01 T02860111  RH  034%=      5-min Rain = 0
KAM2 241824Z 31006KT 28/11 A2981 RMK A01 T02840111  RH  034%=      5-min Rain = 0
KAM2 241825Z 29003KT 28/11 A2981 RMK A01 T02840110  RH  034%=      5-min Rain = 0
KAM2 241826Z 30003KT 28/11 A2981 RMK A01 T02830108  RH  034%=      5-min Rain = 0
KAM2 241827Z 25002KT 28/11 A2981 RMK A01 T02830109  RH  034%=      5-min Rain = 0
KAM2 241828Z 26005KT 28/11 A2981 RMK A01 T02820110  RH  034%=      5-min Rain = 0
KAM2 241829Z 30009KT 28/11 A2981 RMK A01 T02830110  RH  034%=      5-min Rain = 0
KAM2 241830Z 31012KT 28/11 A2981 RMK A01 T02840114  RH  035%=      5-min Rain = 0
KAM2 241831Z 30007KT 29/11 A2981 RMK A01 T02850112  RH  034%=      5-min Rain = 0
KAM2 241832Z 30004KT 29/11 A2981 RMK A01 T02850110  RH  034%=      5-min Rain = 0
KAM2 241833Z 32010KT 28/11 A2981 RMK A01 T02830111  RH  034%=      5-min Rain = 0
KAM2 241834Z 33011G16KT 29/11 A2981 RMK A01 T02850106  RH  033%=      5-min Rain = 0
KAM2 241835Z 30011KT 29/11 A2981 RMK A01 T02880109  RH  033%=      5-min Rain = 0
KAM2 241836Z 29011KT 29/11 A2981 RMK A01 T02920112  RH  033%=      5-min Rain = 0
KAM2 241837Z 30009KT 29/11 A2981 RMK A01 T02940110  RH  032%=      5-min Rain = 0
KAM2 241838Z 30007KT 29/11 A2981 RMK A01 T02910105  RH  032%=      5-min Rain = 0
KAM2 241839Z 29008KT 29/10 A2981 RMK A01 T02860103  RH  032%=      5-min Rain = 0
KAM2 241840Z 28005KT 28/10 A2981 RMK A01 T02830102  RH  032%=      5-min Rain = 0
KAM2 241841Z 27006KT 28/11 A2981 RMK A01 T02830105  RH  033%=      5-min Rain = 0
KAM2 241842Z 31003KT 28/11 A2981 RMK A01 T02840110  RH  034%=      5-min Rain = 0
KAM2 241843Z 36005KT 29/11 A2981 RMK A01 T02920109  RH  032%=      5-min Rain = 0
KAM2 241844Z 36007KT 29/11 A2981 RMK A01 T02940107  RH  031%=      5-min Rain = 0
KAM2 241845Z 34005KT 29/11 A2981 RMK A01 T02940107  RH  031%=      5-min Rain = 0
KAM2 241846Z 31008G13KT 29/11 A2981 RMK A01 T02930105  RH  031%=      5-min Rain = 0
KAM2 241847Z 27009KT 29/10 A298 RMK A01 T02930095  RH  029%=      5-min Rain = 0
KAM2 241848Z 24007KT 30/09 A2981 RMK A01 T02950093  RH  028%=      5-min Rain = 0
KAM2 241849Z 26010KT 30/10 A298 RMK A01 T02950095  RH  029%=      5-min Rain = 0
KAM2 241850Z 25008KT 30/10 A2981 RMK A01 T02960098  RH  029%=      5-min Rain = 0
KAM2 241851Z 26006KT 30/10 A2981 RMK A01 T02960098  RH  029%=      5-min Rain = 0
KAM2 241852Z 26007G13KT 30/10 A2981 RMK A01 T02960099  RH  029%=      5-min Rain = 0
KAM2 241853Z 29012KT 30/10 A298 RMK A01 T02970097  RH  029%=      5-min Rain = 0
KAM2 241854Z 29009KT 30/09 A2981 RMK A01 T02970094  RH  028%=      5-min Rain = 0
KAM2 241855Z 31008KT 30/09 A2981 RMK A01 T02960093  RH  028%=      5-min Rain = 0
KAM2 241856Z 29007KT 29/09 A2981 RMK A01 T02930092  RH  029%=      5-min Rain = 0
KAM2 241857Z 27009KT 29/10 A2981 RMK A01 T02920096  RH  029%=      5-min Rain = 0
KAM2 241858Z 28006KT 29/09 A2981 RMK A01 T02910092  RH  029%=      5-min Rain = 0
KAM2 241859Z 33003KT 29/09 A2981 RMK A01 T02880091  RH  029%=      5-min Rain = 0
KAM2 241900Z 33006KT 29/09 A298 RMK A01 T02870092  RH  030%=      5-min Rain = 0
KAM2 241901Z 33004KT 29/09 A298 RMK A01 T02860092  RH  030%=      5-min Rain = 0
KAM2 241902Z 30003KT 29/09 A298 RMK A01 T02870093  RH  030%=      5-min Rain = 0
KAM2 241903Z 28006KT 29/09 A298 RMK A01 T02880092  RH  029%=      5-min Rain = 0
KAM2 241904Z 28006KT 29/09 A298 RMK A01 T02900090  RH  029%=      5-min Rain = 0
KAM2 241905Z 25009KT 29/09 A298 RMK A01 T02920090  RH  028%=      5-min Rain = 0
KAM2 241906Z 26008KT 29/08 A298 RMK A01 T02940083  RH  027%=      5-min Rain = 0
KAM2 241907Z 29009KT 29/09 A298 RMK A01 T02920087  RH  028%=      5-min Rain = 0
KAM2 241908Z 27008KT 29/09 A298 RMK A01 T02930091  RH  028%=      5-min Rain = 0
KAM2 241909Z 26008KT 30/09 A298 RMK A01 T02970094  RH  028%=      5-min Rain = 0
KAM2 241910Z 27008KT 30/09 A298 RMK A01 T03000087  RH  026%=      5-min Rain = 0
KAM2 241911Z 25008KT 30/09 A298 RMK A01 T02990088  RH  027%=      5-min Rain = 0
KAM2 241912Z 26005KT 30/08 A298 RMK A01 T02980082  RH  026%=      5-min Rain = 0
KAM2 241913Z 25004KT 30/08 A298 RMK A01 T02950082  RH  027%=      5-min Rain = 0
KAM2 241914Z 23003KT 29/08 A298 RMK A01 T02940084  RH  027%=      5-min Rain = 0
KAM2 241915Z 30001KT 29/08 A298 RMK A01 T02930082  RH  027%=      5-min Rain = 0
KAM2 241916Z 18003KT 29/08 A298 RMK A01 T02910084  RH  027%=      5-min Rain = 0
KAM2 241917Z 17005KT 29/08 A298 RMK A01 T02910084  RH  027%=      5-min Rain = 0
KAM2 241918Z 18005KT 29/08 A298 RMK A01 T02930084  RH  027%=      5-min Rain = 0
KAM2 241919Z 18006KT 29/09 A298 RMK A01 T02930087  RH  028%=      5-min Rain = 0
KAM2 241920Z 19004KT 29/09 A298 RMK A01 T02930085  RH  027%=      5-min Rain = 0
KAM2 241921Z 22003KT 29/09 A298 RMK A01 T02930086  RH  028%=      5-min Rain = 0
KAM2 241922Z 26003KT 29/09 A298 RMK A01 T02940086  RH  027%=      5-min Rain = 0
KAM2 241923Z 25008KT 30/08 A298 RMK A01 T02950083  RH  027%=      5-min Rain = 0
KAM2 241924Z 24009KT 30/09 A298 RMK A01 T02980085  RH  026%=      5-min Rain = 0
KAM2 241925Z 27010KT 30/09 A2979 RMK A01 T03010085  RH  026%=      5-min Rain = 0
KAM2 241926Z 28006KT 30/09 A2979 RMK A01 T03000086  RH  026%=      5-min Rain = 0
KAM2 241927Z 29006G13KT 30/09 A2979 RMK A01 T03020089  RH  027%=      5-min Rain = 0
KAM2 241928Z 28009KT 30/08 A2979 RMK A01 T03030081  RH  025%=      5-min Rain = 0
KAM2 241929Z 30008KT 30/08 A2979 RMK A01 T02990080  RH  025%=      5-min Rain = 0
KAM2 241930Z 30005KT 30/08 A2979 RMK A01 T02980081  RH  026%=      5-min Rain = 0
KAM2 241931Z 28009G14KT 30/08 A2979 RMK A01 T02960080  RH  026%=      5-min Rain = 0
KAM2 241932Z 28009KT 30/08 A2979 RMK A01 T02960080  RH  026%=      5-min Rain = 0
KAM2 241933Z 29007KT 30/08 A2979 RMK A01 T02970081  RH  026%=      5-min Rain = 0
KAM2 241934Z 28007KT 30/08 A2979 RMK A01 T02980081  RH  026%=      5-min Rain = 0
KAM2 241935Z 28008KT 30/08 A2979 RMK A01 T03000084  RH  026%=      5-min Rain = 0
KAM2 241936Z 26010KT 30/08 A2979 RMK A01 T03020084  RH  026%=      5-min Rain = 0
KAM2 241937Z 26007KT 30/08 A2979 RMK A01 T02990083  RH  026%=      5-min Rain = 0
KAM2 241938Z 26005KT 30/08 A2979 RMK A01 T02960082  RH  026%=      5-min Rain = 0
KAM2 241939Z 30005KT 30/08 A2979 RMK A01 T02950080  RH  026%=      5-min Rain = 0
KAM2 241940Z 31007KT 29/08 A2979 RMK A01 T02930079  RH  026%=      5-min Rain = 0
KAM2 241941Z 32005KT 29/08 A2979 RMK A01 T02920077  RH  026%=      5-min Rain = 0
KAM2 241942Z 32002KT 29/08 A2979 RMK A01 T02910079  RH  026%=      5-min Rain = 0
KAM2 241943Z 36004KT 29/08 A2979 RMK A01 T02940082  RH  026%=      5-min Rain = 0
KAM2 241944Z 00003KT 30/08 A2979 RMK A01 T02960079  RH  026%=      5-min Rain = 0
KAM2 241945Z 35003KT 30/08 A2979 RMK A01 T02970078  RH  025%=      5-min Rain = 0
KAM2 241946Z 34002G7KT 30/08 A2979 RMK A01 T02980079  RH  025%=      5-min Rain = 0
KAM2 241947Z 33007KT 30/08 A2979 RMK A01 T03000083  RH  026%=      5-min Rain = 0
KAM2 241948Z 01005KT 30/08 A2979 RMK A01 T03030075  RH  024%=      5-min Rain = 0
KAM2 241949Z 03007KT 30/07 A2979 RMK A01 T03000074  RH  024%=      5-min Rain = 0
KAM2 241950Z 04005KT 30/08 A2979 RMK A01 T02970075  RH  025%=      5-min Rain = 0
KAM2 241951Z 05005KT 30/08 A2979 RMK A01 T02950077  RH  025%=      5-min Rain = 0
KAM2 241952Z 05003KT 30/08 A2979 RMK A01 T02950076  RH  025%=      5-min Rain = 0
KAM2 241953Z 24003KT 30/08 A2979 RMK A01 T02950075  RH  025%=      5-min Rain = 0
KAM2 241954Z 27005KT 29/07 A2979 RMK A01 T02940072  RH  025%=      5-min Rain = 0
KAM2 241955Z 30003KT 30/07 A2979 RMK A01 T02950069  RH  024%=      5-min Rain = 0
KAM2 241956Z 24004KT 30/07 A2979 RMK A01 T02980072  RH  024%=      5-min Rain = 0
KAM2 241957Z 24007KT 30/07 A2979 RMK A01 T03010069  RH  023%=      5-min Rain = 0
KAM2 241958Z 27005KT 31/06 A2979 RMK A01 T03050062  RH  022%=      5-min Rain = 0
KAM2 241959Z 26006G11KT 30/06 A2978 RMK A01 T03040061  RH  022%=      5-min Rain = 0
KAM2 242000Z 24010KT 30/06 A2979 RMK A01 T03030062  RH  022%=      5-min Rain = 0
KAM2 242001Z 23005KT 30/06 A2979 RMK A01 T03040062  RH  022%=      5-min Rain = 0
KAM2 242002Z 19005KT 30/07 A2978 RMK A01 T03010065  RH  023%=      5-min Rain = 0
KAM2 242003Z 22008KT 30/07 A2978 RMK A01 T03030066  RH  023%=      5-min Rain = 0
KAM2 242004Z 22006KT 31/07 A2978 RMK A01 T03050067  RH  023%=      5-min Rain = 0
KAM2 242005Z 22006KT 31/07 A2978 RMK A01 T03050065  RH  022%=      5-min Rain = 0
KAM2 242006Z 23008KT 30/07 A2978 RMK A01 T03040067  RH  023%=      5-min Rain = 0
KAM2 242007Z 23007KT 30/07 A2978 RMK A01 T03040066  RH  022%=      5-min Rain = 0
KAM2 242008Z 22005KT 31/07 A2978 RMK A01 T03050065  RH  022%=      5-min Rain = 0
KAM2 242009Z 21007KT 31/07 A2978 RMK A01 T03060066  RH  022%=      5-min Rain = 0
KAM2 242010Z 20007KT 30/07 A2978 RMK A01 T03030066  RH  023%=      5-min Rain = 0
KAM2 242011Z 18005KT 30/07 A2978 RMK A01 T03030071  RH  023%=      5-min Rain = 0
KAM2 242012Z 17004KT 31/07 A2978 RMK A01 T03050068  RH  023%=      5-min Rain = 0
KAM2 242013Z 15004KT 31/07 A2978 RMK A01 T03050067  RH  022%=      5-min Rain = 0
KAM2 242014Z 13005KT 30/07 A2978 RMK A01 T03040067  RH  023%=      5-min Rain = 0
KAM2 242015Z 10004KT 31/07 A2978 RMK A01 T03050065  RH  022%=      5-min Rain = 0
KAM2 242016Z 07003KT 30/07 A2978 RMK A01 T03020066  RH  023%=      5-min Rain = 0
KAM2 242017Z 05001KT 30/07 A2978 RMK A01 T03030069  RH  023%=      5-min Rain = 0
KAM2 242018Z 01002KT 31/07 A2978 RMK A01 T03080071  RH  023%=      5-min Rain = 0
KAM2 242019Z 03002KT 31/07 A2978 RMK A01 T03090069  RH  022%=      5-min Rain = 0
KAM2 242020Z 04002KT 31/07 A2978 RMK A01 T03100070  RH  022%=      5-min Rain = 0
KAM2 242021Z 31003KT 31/07 A2978 RMK A01 T03120071  RH  022%=      5-min Rain = 0
KAM2 242022Z 30010KT 31/07 A2978 RMK A01 T03130072  RH  022%=      5-min Rain = 0
KAM2 242023Z 30009KT 31/07 A2978 RMK A01 T03120069  RH  022%=      5-min Rain = 0
KAM2 242024Z 29004KT 31/07 A2978 RMK A01 T03070065  RH  022%=      5-min Rain = 0
KAM2 242025Z 28002G7KT 30/07 A2978 RMK A01 T03040066  RH  022%=      5-min Rain = 0
KAM2 242026Z 04001KT 30/07 A2978 RMK A01 T03030066  RH  023%=      5-min Rain = 0
KAM2 242027Z 07002KT 30/07 A2978 RMK A01 T03040069  RH  023%=      5-min Rain = 0
KAM2 242028Z 19005KT 31/07 A2977 RMK A01 T03090071  RH  023%=      5-min Rain = 0
KAM2 242029Z 19005KT 31/07 A2977 RMK A01 T03110065  RH  021%=      5-min Rain = 0
KAM2 242030Z 20005KT 31/06 A2977 RMK A01 T03080064  RH  022%=      5-min Rain = 0
KAM2 242031Z 21004KT 31/07 A2977 RMK A01 T03070067  RH  022%=      5-min Rain = 0
KAM2 242032Z 19003KT 31/06 A2977 RMK A01 T03070061  RH  021%=      5-min Rain = 0
KAM2 242033Z 23003KT 30/06 A2977 RMK A01 T03040062  RH  022%=      5-min Rain = 0
KAM2 242034Z 24006G11KT 30/06 A2977 RMK A01 T03040064  RH  022%=      5-min Rain = 0
KAM2 242035Z 23005G10KT 31/06 A2977 RMK A01 T03070058  RH  021%=      5-min Rain = 0
KAM2 242036Z 26010KT 31/06 A2977 RMK A01 T03120061  RH  021%=      5-min Rain = 0
KAM2 242037Z 25011KT 32/06 A2977 RMK A01 T03160060  RH  020%=      5-min Rain = 0
KAM2 242038Z 26011KT 32/06 A2977 RMK A01 T03160060  RH  020%=      5-min Rain = 0
KAM2 242039Z 27006KT 32/06 A2977 RMK A01 T03150057  RH  020%=      5-min Rain = 0
KAM2 242040Z 25007KT 31/06 A2977 RMK A01 T03130059  RH  020%=      5-min Rain = 0
KAM2 242041Z 27005KT 31/06 A2977 RMK A01 T03120059  RH  020%=      5-min Rain = 0
KAM2 242042Z 25007KT 32/06 A2977 RMK A01 T03150060  RH  020%=      5-min Rain = 0
KAM2 242043Z 26007KT 32/06 A2977 RMK A01 T03160057  RH  020%=      5-min Rain = 0
KAM2 242044Z 24008KT 31/06 A2977 RMK A01 T03140055  RH  020%=      5-min Rain = 0
KAM2 242045Z 22009G14KT 31/06 A2977 RMK A01 T03100057  RH  020%=      5-min Rain = 0
KAM2 242046Z 20007KT 31/05 A2977 RMK A01 T03110053  RH  020%=      5-min Rain = 0
KAM2 242047Z 22006KT 31/05 A2977 RMK A01 T03120051  RH  019%=      5-min Rain = 0
KAM2 242048Z 26004KT 31/05 A2976 RMK A01 T03110053  RH  020%=      5-min Rain = 0
KAM2 242049Z 25008KT 31/05 A2976 RMK A01 T03130053  RH  019%=      5-min Rain = 0
KAM2 242050Z 25008KT 32/05 A2976 RMK A01 T03160046  RH  018%=      5-min Rain = 0
KAM2 242051Z 23010KT 32/05 A2976 RMK A01 T03170046  RH  018%=      5-min Rain = 0
KAM2 242052Z 22009KT 32/04 A2976 RMK A01 T03160043  RH  018%=      5-min Rain = 0
KAM2 242053Z 23007KT 31/04 A2976 RMK A01 T03130042  RH  018%=      5-min Rain = 0
KAM2 242054Z 26010KT 31/05 A2976 RMK A01 T03110047  RH  019%=      5-min Rain = 0
KAM2 242055Z 27011KT 31/05 A2976 RMK A01 T03130047  RH  019%=      5-min Rain = 0
KAM2 242056Z 26010KT 31/04 A2976 RMK A01 T03130044  RH  018%=      5-min Rain = 0
KAM2 242057Z 26009KT 31/05 A2976 RMK A01 T03130048  RH  019%=      5-min Rain = 0
KAM2 242058Z 27007KT 32/05 A2976 RMK A01 T03150050  RH  019%=      5-min Rain = 0
KAM2 242059Z 27007G12KT 32/05 A2976 RMK A01 T03160049  RH  019%=      5-min Rain = 0
KAM2 242100Z 26011KT 32/05 A2976 RMK A01 T03170048  RH  018%=      5-min Rain = 0
KAM2 242101Z 24007KT 32/05 A2976 RMK A01 T03180051  RH  019%=      5-min Rain = 0
KAM2 242102Z 20009KT 32/05 A2976 RMK A01 T03230050  RH  018%=      5-min Rain = 0
KAM2 242103Z 19005KT 32/05 A2976 RMK A01 T03200045  RH  018%=      5-min Rain = 0
KAM2 242104Z 22004KT 32/05 A2976 RMK A01 T03170050  RH  019%=      5-min Rain = 0
KAM2 242105Z 23004KT 32/05 A2976 RMK A01 T03170048  RH  018%=      5-min Rain = 0
KAM2 242106Z 21006KT 32/05 A2976 RMK A01 T03150047  RH  019%=      5-min Rain = 0
KAM2 242107Z 21004KT 31/05 A2975 RMK A01 T03140046  RH  018%=      5-min Rain = 0
KAM2 242108Z 20008KT 31/05 A2975 RMK A01 T03140049  RH  019%=      5-min Rain = 0
KAM2 242109Z 21008KT 31/05 A2975 RMK A01 T03140047  RH  019%=      5-min Rain = 0
KAM2 242110Z 23006KT 32/05 A2975 RMK A01 T03150052  RH  019%=      5-min Rain = 0
KAM2 242111Z 24001KT 32/04 A2975 RMK A01 T03160043  RH  018%=      5-min Rain = 0
KAM2 242112Z 15000KT 31/04 A2975 RMK A01 T03130041  RH  018%=      5-min Rain = 0
KAM2 242113Z 18002KT 31/04 A2975 RMK A01 T03120044  RH  018%=      5-min Rain = 0
KAM2 242114Z 16003KT 31/04 A2975 RMK A01 T03120042  RH  018%=      5-min Rain = 0
KAM2 242115Z 20002KT 31/05 A2975 RMK A01 T03120045  RH  018%=      5-min Rain = 0
KAM2 242116Z 18001KT 31/04 A2975 RMK A01 T03130044  RH  018%=      5-min Rain = 0
KAM2 242117Z 19005KT 32/04 A2974 RMK A01 T03150044  RH  018%=      5-min Rain = 0
KAM2 242118Z 17004KT 32/04 A2974 RMK A01 T03160043  RH  018%=      5-min Rain = 0
KAM2 242119Z 16003KT 31/04 A2974 RMK A01 T03140042  RH  018%=      5-min Rain = 0
KAM2 242120Z 17003KT 31/04 A2974 RMK A01 T03130044  RH  018%=      5-min Rain = 0
KAM2 242121Z 18002KT 31/04 A2974 RMK A01 T03140043  RH  018%=      5-min Rain = 0
KAM2 242122Z 18001KT 32/04 A2974 RMK A01 T03150043  RH  018%=      5-min Rain = 0
KAM2 242123Z 23004KT 32/05 A2974 RMK A01 T03150046  RH  018%=      5-min Rain = 0
KAM2 242124Z 24009G19KT 32/05 A2973 RMK A01 T03190051  RH  019%=      5-min Rain = 0
KAM2 242125Z 28007KT 32/05 A2974 RMK A01 T03240051  RH  018%=      5-min Rain = 0
KAM2 242126Z 23006G13KT 33/05 A2973 RMK A01 T03250051  RH  018%=      5-min Rain = 0
KAM2 242127Z 22006G11KT 33/05 A2973 RMK A01 T03260045  RH  017%=      5-min Rain = 0
KAM2 242128Z 23003KT 32/05 A2973 RMK A01 T03220046  RH  018%=      5-min Rain = 0
KAM2 242129Z 27008G13KT 32/05 A2974 RMK A01 T03220049  RH  018%=      5-min Rain = 0
KAM2 242130Z 28006KT 32/04 A2973 RMK A01 T03220040  RH  017%=      5-min Rain = 0
KAM2 242131Z 28004KT 32/04 A2973 RMK A01 T03190043  RH  018%=      5-min Rain = 0
KAM2 242132Z 24005G10KT 32/04 A2973 RMK A01 T03180043  RH  018%=      5-min Rain = 0
KAM2 242133Z 21005KT 32/04 A2973 RMK A01 T03170044  RH  018%=      5-min Rain = 0
KAM2 242134Z 20006KT 32/04 A2973 RMK A01 T03160043  RH  018%=      5-min Rain = 0
KAM2 242135Z 21008KT 32/04 A2973 RMK A01 T03170041  RH  018%=      5-min Rain = 0
KAM2 242136Z 20009KT 32/04 A2973 RMK A01 T03160044  RH  018%=      5-min Rain = 0
KAM2 242137Z 20012KT 32/05 A2973 RMK A01 T03180045  RH  018%=      5-min Rain = 0
KAM2 242138Z 20007KT 32/04 A2973 RMK A01 T03160040  RH  018%=      5-min Rain = 0
KAM2 242139Z 19006KT 31/04 A2973 RMK A01 T03140043  RH  018%=      5-min Rain = 0
KAM2 242140Z 20006KT 31/04 A2973 RMK A01 T03140042  RH  018%=      5-min Rain = 0
KAM2 242141Z 21006KT 32/04 A2973 RMK A01 T03150044  RH  018%=      5-min Rain = 0
KAM2 242142Z 21006KT 32/04 A2973 RMK A01 T03180039  RH  017%=      5-min Rain = 0
KAM2 242143Z 23006KT 32/05 A2973 RMK A01 T03190045  RH  018%=      5-min Rain = 0
KAM2 242144Z 21005KT 32/05 A2972 RMK A01 T03230047  RH  018%=      5-min Rain = 0
KAM2 242145Z 22004KT 33/05 A2972 RMK A01 T03270049  RH  018%=      5-min Rain = 0
KAM2 242146Z 24004KT 33/05 A2972 RMK A01 T03290048  RH  017%=      5-min Rain = 0
KAM2 242147Z 27005KT 33/05 A2972 RMK A01 T03300049  RH  017%=      5-min Rain = 0
KAM2 242148Z 28004KT 33/05 A2972 RMK A01 T03260046  RH  017%=      5-min Rain = 0
KAM2 242149Z 30004KT 32/05 A2972 RMK A01 T03240048  RH  018%=      5-min Rain = 0
KAM2 242150Z 32005KT 32/05 A2972 RMK A01 T03220047  RH  018%=      5-min Rain = 0
KAM2 242151Z 31007KT 32/05 A2971 RMK A01 T03210048  RH  018%=      5-min Rain = 0
KAM2 242152Z 32004KT 32/05 A2971 RMK A01 T03190049  RH  018%=      5-min Rain = 0
KAM2 242153Z 30005KT 32/05 A2971 RMK A01 T03180048  RH  018%=      5-min Rain = 0
KAM2 242154Z 30004KT 32/05 A2971 RMK A01 T03170045  RH  018%=      5-min Rain = 0
KAM2 242155Z 32004KT 31/04 A2971 RMK A01 T03140041  RH  018%=      5-min Rain = 0
KAM2 242156Z 31004KT 31/05 A2971 RMK A01 T03130045  RH  018%=      5-min Rain = 0
KAM2 242157Z 31002KT 31/04 A2971 RMK A01 T03130040  RH  018%=      5-min Rain = 0
KAM2 242158Z 26001KT 31/04 A2971 RMK A01 T03120042  RH  018%=      5-min Rain = 0
KAM2 242159Z 29006G13KT 31/04 A2971 RMK A01 T03110040  RH  018%=      5-min Rain = 0
KAM2 242200Z 30009KT 31/04 A2971 RMK A01 T03110039  RH  018%=      5-min Rain = 0
KAM2 242201Z 30007KT 31/04 A2971 RMK A01 T03110037  RH  018%=      5-min Rain = 0
KAM2 242202Z 27005KT 31/04 A2971 RMK A01 T03100037  RH  018%=      5-min Rain = 0
KAM2 242203Z 23005KT 31/04 A2971 RMK A01 T03100040  RH  018%=      5-min Rain = 0
KAM2 242204Z 29006KT 31/04 A2971 RMK A01 T03110041  RH  018%=      5-min Rain = 0
KAM2 242205Z 25012KT 31/04 A2971 RMK A01 T03140043  RH  018%=      5-min Rain = 0
KAM2 242206Z 24008KT 31/04 A2971 RMK A01 T03140040  RH  018%=      5-min Rain = 0
KAM2 242207Z 25007KT 31/04 A2971 RMK A01 T03140038  RH  017%=      5-min Rain = 0
KAM2 242208Z 24008KT 31/04 A2971 RMK A01 T03120038  RH  018%=      5-min Rain = 0
KAM2 242209Z 25007KT 31/04 A2971 RMK A01 T03110035  RH  017%=      5-min Rain = 0
KAM2 242210Z 25005KT 31/04 A2971 RMK A01 T03090038  RH  018%=      5-min Rain = 0
KAM2 242211Z 25005KT 31/04 A2971 RMK A01 T03080038  RH  018%=      5-min Rain = 0
KAM2 242212Z 25006KT 31/04 A2971 RMK A01 T03080038  RH  018%=      5-min Rain = 0
KAM2 242213Z 23009KT 31/04 A2971 RMK A01 T03070036  RH  018%=      5-min Rain = 0
KAM2 242214Z 24008KT 31/04 A2971 RMK A01 T03070036  RH  018%=      5-min Rain = 0
KAM2 242215Z 25007KT 31/04 A2971 RMK A01 T03060035  RH  018%=      5-min Rain = 0
KAM2 242216Z 27006KT 31/03 A2972 RMK A01 T03050034  RH  018%=      5-min Rain = 0
KAM2 242217Z 27005KT 30/03 A2972 RMK A01 T03030031  RH  018%=      5-min Rain = 0
KAM2 242218Z 22004KT 30/03 A2972 RMK A01 T03030031  RH  018%=      5-min Rain = 0
KAM2 242219Z 19007KT 30/03 A2972 RMK A01 T03020034  RH  018%=      5-min Rain = 0
KAM2 242220Z 19005KT 30/03 A2971 RMK A01 T03020032  RH  018%=      5-min Rain = 0
KAM2 242221Z 23002KT 30/03 A2971 RMK A01 T03010029  RH  018%=      5-min Rain = 0
KAM2 242222Z 25002KT 30/03 A2971 RMK A01 T03010028  RH  018%=      5-min Rain = 0
KAM2 242223Z 25003KT 30/03 A2971 RMK A01 T03010030  RH  018%=      5-min Rain = 0
KAM2 242224Z 24003KT 30/03 A2971 RMK A01 T03000034  RH  018%=      5-min Rain = 0
KAM2 242225Z 26002KT 30/03 A2971 RMK A01 T02990032  RH  018%=      5-min Rain = 0
KAM2 242226Z 27002KT 30/03 A2971 RMK A01 T02990032  RH  018%=      5-min Rain = 0
KAM2 242227Z 27002KT 30/03 A2971 RMK A01 T02990031  RH  018%=      5-min Rain = 0
KAM2 242228Z 27001KT 30/03 A2971 RMK A01 T02990032  RH  018%=      5-min Rain = 0
KAM2 242229Z 26001KT 30/04 A2971 RMK A01 T02990035  RH  019%=      5-min Rain = 0
KAM2 242230Z 27000KT 30/03 A2971 RMK A01 T02990034  RH  019%=      5-min Rain = 0
KAM2 242231Z 25002KT 30/04 A2971 RMK A01 T02990036  RH  019%=      5-min Rain = 0
KAM2 242232Z 25001KT 30/04 A2971 RMK A01 T02990037  RH  019%=      5-min Rain = 0
KAM2 242233Z 23002KT 30/04 A2971 RMK A01 T02990037  RH  019%=      5-min Rain = 0
KAM2 242234Z 22003KT 30/04 A2971 RMK A01 T02990035  RH  019%=      5-min Rain = 0
KAM2 242235Z 24002KT 30/04 A2971 RMK A01 T02990035  RH  019%=      5-min Rain = 0
KAM2 242236Z 27000KT 30/04 A2971 RMK A01 T02990037  RH  019%=      5-min Rain = 0
KAM2 242237Z 25001KT 30/04 A2971 RMK A01 T02990040  RH  019%=      5-min Rain = 0
KAM2 242238Z 25001KT 30/04 A297 RMK A01 T03000039  RH  019%=      5-min Rain = 0
KAM2 242239Z 25001KT 30/04 A297 RMK A01 T03000042  RH  019%=      5-min Rain = 0
KAM2 242240Z 24002KT 30/04 A297 RMK A01 T03000039  RH  019%=      5-min Rain = 0
KAM2 242241Z 14000KT 30/03 A297 RMK A01 T03010033  RH  018%=      5-min Rain = 0
KAM2 242242Z 14001KT 30/03 A297 RMK A01 T03010033  RH  018%=      5-min Rain = 0
KAM2 242243Z 19000KT 30/05 A297 RMK A01 T03010046  RH  020%=      5-min Rain = 0
KAM2 242244Z 11001KT 30/06 A297 RMK A01 T03020059  RH  022%=      5-min Rain = 0
KAM2 242245Z 04001KT 30/05 A297 RMK A01 T03020053  RH  021%=      5-min Rain = 0
KAM2 242246Z 02002KT 30/05 A297 RMK A01 T03030049  RH  020%=      5-min Rain = 0
KAM2 242247Z 01002KT 30/05 A297 RMK A01 T03020051  RH  020%=      5-min Rain = 0
KAM2 242248Z 03003KT 30/05 A297 RMK A01 T03030047  RH  020%=      5-min Rain = 0
KAM2 242249Z 03003KT 30/04 A297 RMK A01 T03040039  RH  019%=      5-min Rain = 0
KAM2 242250Z 06002KT 30/04 A297 RMK A01 T03040040  RH  019%=      5-min Rain = 0
KAM2 242251Z 06001KT 30/04 A297 RMK A01 T03040041  RH  019%=      5-min Rain = 0
KAM2 242252Z 03002KT 30/04 A297 RMK A01 T03040039  RH  019%=      5-min Rain = 0
KAM2 242253Z 04002KT 31/04 A297 RMK A01 T03050041  RH  019%=      5-min Rain = 0
KAM2 242254Z 03002KT 31/04 A297 RMK A01 T03050038  RH  018%=      5-min Rain = 0
KAM2 242255Z 03002KT 31/04 A297 RMK A01 T03060037  RH  018%=      5-min Rain = 0
KAM2 242256Z 04001KT 31/04 A297 RMK A01 T03060038  RH  018%=      5-min Rain = 0
KAM2 242257Z 06001KT 31/04 A297 RMK A01 T03080039  RH  018%=      5-min Rain = 0
KAM2 242258Z 05001KT 31/04 A297 RMK A01 T03080039  RH  018%=      5-min Rain = 0
KAM2 242259Z 06000KT 31/04 A297 RMK A01 T03090037  RH  018%=      5-min Rain = 0
KAM2 242300Z 13002KT 31/04 A297 RMK A01 T03100041  RH  018%=      5-min Rain = 0
KAM2 242301Z 13003KT 31/05 A297 RMK A01 T03120048  RH  019%=      5-min Rain = 0
KAM2 242302Z 14005G10KT 31/04 A297 RMK A01 T03140044  RH  018%=      5-min Rain = 0
KAM2 242303Z 16016KT 31/06 A297 RMK A01 T03130055  RH  020%=      5-min Rain = 0
KAM2 242304Z 15015KT 31/06 A297 RMK A01 T03050063  RH  022%=      5-min Rain = 0
KAM2 242305Z 14012G17KT 30/07 A297 RMK A01 T03000066  RH  023%=      5-min Rain = 0
KAM2 242306Z 14010KT 30/07 A297 RMK A01 T02980070  RH  024%=      5-min Rain = 0
KAM2 242307Z 15016KT 30/07 A2969 RMK A01 T02990068  RH  023%=      5-min Rain = 0
KAM2 242308Z 15015KT 30/06 A2969 RMK A01 T02960063  RH  023%=      5-min Rain = 0
KAM2 242309Z 14014KT 29/06 A2969 RMK A01 T02930064  RH  024%=      5-min Rain = 0
KAM2 242310Z 14011KT 29/06 A2969 RMK A01 T02900062  RH  024%=      5-min Rain = 0
KAM2 242311Z 14012KT 29/06 A2969 RMK A01 T02870062  RH  024%=      5-min Rain = 0
KAM2 242312Z 13008KT 28/06 A2969 RMK A01 T02840062  RH  024%=      5-min Rain = 0
KAM2 242313Z 15006KT 28/06 A2969 RMK A01 T02830064  RH  025%=      5-min Rain = 0
KAM2 242314Z 16006KT 28/06 A2969 RMK A01 T02820064  RH  025%=      5-min Rain = 0
KAM2 242315Z 17007KT 28/06 A2969 RMK A01 T02810063  RH  025%=      5-min Rain = 0
KAM2 242316Z 16006KT 28/06 A2968 RMK A01 T02800064  RH  025%=      5-min Rain = 0
KAM2 242317Z 14006KT 28/07 A2968 RMK A01 T02800065  RH  026%=      5-min Rain = 0
KAM2 242318Z 15005KT 28/07 A2968 RMK A01 T02810065  RH  026%=      5-min Rain = 0
KAM2 242319Z 14006KT 28/06 A2968 RMK A01 T02810063  RH  025%=      5-min Rain = 0
KAM2 242320Z 16007KT 28/07 A2968 RMK A01 T02810065  RH  026%=      5-min Rain = 0
KAM2 242321Z 16009KT 28/07 A2968 RMK A01 T02810065  RH  025%=      5-min Rain = 0
KAM2 242322Z 17009KT 28/07 A2968 RMK A01 T02820066  RH  026%=      5-min Rain = 0
KAM2 242323Z 16007KT 28/07 A2968 RMK A01 T02820067  RH  026%=      5-min Rain = 0
KAM2 242324Z 15008KT 28/07 A2968 RMK A01 T02830067  RH  025%=      5-min Rain = 0
KAM2 242325Z 15009KT 28/06 A2968 RMK A01 T02830064  RH  025%=      5-min Rain = 0
KAM2 242326Z 15009KT 28/06 A2968 RMK A01 T02830062  RH  025%=      5-min Rain = 0
KAM2 242327Z 15010KT 28/06 A2968 RMK A01 T02830062  RH  025%=      5-min Rain = 0
KAM2 242328Z 15009KT 28/06 A2968 RMK A01 T02820062  RH  025%=      5-min Rain = 0
KAM2 242329Z 14008KT 28/06 A2968 RMK A01 T02820061  RH  025%=      5-min Rain = 0
KAM2 242330Z 14009KT 28/06 A2968 RMK A01 T02820060  RH  025%=      5-min Rain = 0
KAM2 242331Z 14010KT 28/06 A2968 RMK A01 T02810059  RH  024%=      5-min Rain = 0
KAM2 242332Z 15012KT 28/06 A2968 RMK A01 T02810058  RH  024%=      5-min Rain = 0
KAM2 242333Z 15010KT 28/06 A2968 RMK A01 T02800056  RH  024%=      5-min Rain = 0
KAM2 242334Z 15009KT 28/06 A2968 RMK A01 T02800057  RH  024%=      5-min Rain = 0
KAM2 242335Z 15010KT 28/06 A2968 RMK A01 T02790058  RH  024%=      5-min Rain = 0
KAM2 242336Z 16009KT 28/06 A2968 RMK A01 T02790057  RH  024%=      5-min Rain = 0
KAM2 242337Z 16007KT 28/06 A2968 RMK A01 T02790057  RH  024%=      5-min Rain = 0
KAM2 242338Z 14008KT 28/06 A2968 RMK A01 T02780057  RH  024%=      5-min Rain = 0
KAM2 242339Z 14007KT 28/06 A2968 RMK A01 T02780056  RH  024%=      5-min Rain = 0
KAM2 242340Z 14006KT 28/06 A2968 RMK A01 T02780057  RH  024%=      5-min Rain = 0
KAM2 242341Z 15006KT 28/06 A2968 RMK A01 T02790059  RH  025%=      5-min Rain = 0
KAM2 242342Z 15005KT 28/06 A2968 RMK A01 T02780058  RH  025%=      5-min Rain = 0
KAM2 242343Z 16006KT 28/06 A2968 RMK A01 T02780059  RH  025%=      5-min Rain = 0
KAM2 242344Z 16005KT 28/06 A2968 RMK A01 T02770058  RH  025%=      5-min Rain = 0
KAM2 242345Z 17006KT 28/06 A2968 RMK A01 T02770059  RH  025%=      5-min Rain = 0
KAM2 242346Z 17007KT 28/06 A2968 RMK A01 T02770061  RH  025%=      5-min Rain = 0
KAM2 242347Z 18007KT 28/06 A2968 RMK A01 T02770061  RH  025%=      5-min Rain = 0
KAM2 242348Z 17005KT 28/06 A2967 RMK A01 T02770059  RH  025%=      5-min Rain = 0
KAM2 242349Z 17006KT 28/06 A2967 RMK A01 T02770060  RH  025%=      5-min Rain = 0
KAM2 242350Z 17006KT 28/06 A2967 RMK A01 T02760059  RH  025%=      5-min Rain = 0
KAM2 242351Z 17007KT 28/06 A2967 RMK A01 T02760059  RH  025%=      5-min Rain = 0
KAM2 242352Z 18005KT 28/06 A2967 RMK A01 T02760059  RH  025%=      5-min Rain = 0
KAM2 242353Z 19006KT 28/06 A2967 RMK A01 T02760061  RH  025%=      5-min Rain = 0
KAM2 242354Z 19006KT 28/06 A2967 RMK A01 T02760060  RH  025%=      5-min Rain = 0
KAM2 242355Z 19006KT 28/06 A2967 RMK A01 T02760059  RH  025%=      5-min Rain = 0
KAM2 242356Z 20006KT 28/06 A2967 RMK A01 T02760059  RH  025%=      5-min Rain = 0
KAM2 242357Z 20007KT 28/06 A2967 RMK A01 T02760061  RH  026%=      5-min Rain = 0
KAM2 242358Z 20006KT 28/06 A2967 RMK A01 T02760062  RH  026%=      5-min Rain = 0
KAM2 242359Z 19010KT 28/06 A2967 RMK A01 T02750060  RH  025%=      5-min Rain = 0
KAM2 250000Z 19009KT 28/06 A2967 RMK A01 T02750057  RH  025%=      5-min Rain = 0
KAM2 250001Z 19008KT 28/06 A2967 RMK A01 T02760056  RH  025%=      5-min Rain = 0
KAM2 250002Z 20006KT 28/06 A2966 RMK A01 T02770057  RH  025%=      5-min Rain = 0
KAM2 250003Z 21005KT 28/06 A2966 RMK A01 T02770058  RH  025%=      5-min Rain = 0
KAM2 250004Z 21005KT 28/06 A2966 RMK A01 T02770059  RH  025%=      5-min Rain = 0
KAM2 250005Z 21006KT 28/06 A2966 RMK A01 T02760059  RH  025%=      5-min Rain = 0
KAM2 250006Z 21006KT 28/06 A2966 RMK A01 T02760058  RH  025%=      5-min Rain = 0
KAM2 250007Z 21005KT 28/06 A2966 RMK A01 T02760057  RH  025%=      5-min Rain = 0
KAM2 250008Z 22004KT 28/06 A2965 RMK A01 T02760057  RH  025%=      5-min Rain = 0
KAM2 250009Z 21004KT 28/06 A2965 RMK A01 T02760058  RH  025%=      5-min Rain = 0
KAM2 250010Z 21003KT 28/06 A2965 RMK A01 T02760057  RH  025%=      5-min Rain = 0
KAM2 250011Z 20005KT 28/06 A2965 RMK A01 T02770058  RH  025%=      5-min Rain = 0
KAM2 250012Z 20004KT 28/06 A2965 RMK A01 T02770059  RH  025%=      5-min Rain = 0
KAM2 250013Z 19004KT 28/06 A2965 RMK A01 T02770060  RH  025%=      5-min Rain = 0
KAM2 250014Z 19004KT 28/06 A2965 RMK A01 T02770062  RH  026%=      5-min Rain = 0
KAM2 250015Z 18003KT 28/06 A2965 RMK A01 T02760061  RH  026%=      5-min Rain = 0
KAM2 250016Z 17003KT 28/06 A2965 RMK A01 T02760062  RH  026%=      5-min Rain = 0
KAM2 250017Z 17002KT 28/06 A2965 RMK A01 T02760063  RH  026%=      5-min Rain = 0
KAM2 250018Z 15002KT 28/06 A2965 RMK A01 T02760063  RH  026%=      5-min Rain = 0
KAM2 250019Z 16002KT 28/06 A2965 RMK A01 T02770064  RH  026%=      5-min Rain = 0
KAM2 250020Z 15003KT 28/06 A2965 RMK A01 T02760064  RH  026%=      5-min Rain = 0
KAM2 250021Z 19001KT 28/06 A2965 RMK A01 T02770062  RH  025%=      5-min Rain = 0
KAM2 250022Z 13001KT 28/06 A2965 RMK A01 T02770061  RH  025%=      5-min Rain = 0
KAM2 250023Z 12001KT 28/06 A2965 RMK A01 T02770064  RH  026%=      5-min Rain = 0
KAM2 250024Z 15001KT 28/07 A2965 RMK A01 T02780065  RH  026%=      5-min Rain = 0
KAM2 250025Z 13001KT 28/06 A2965 RMK A01 T02780062  RH  025%=      5-min Rain = 0
KAM2 250026Z 12001KT 28/06 A2965 RMK A01 T02780060  RH  025%=      5-min Rain = 0
KAM2 250027Z 12000KT 28/06 A2965 RMK A01 T02780058  RH  025%=      5-min Rain = 0
KAM2 250028Z 06001KT 28/06 A2965 RMK A01 T02790058  RH  025%=      5-min Rain = 0
KAM2 250029Z 08002KT 28/07 A2965 RMK A01 T02790065  RH  026%=      5-min Rain = 0
KAM2 250030Z 08003KT 28/07 A2965 RMK A01 T02790068  RH  026%=      5-min Rain = 0
KAM2 250031Z 07003KT 28/07 A2965 RMK A01 T02790067  RH  026%=      5-min Rain = 0
KAM2 250032Z 07003KT 28/07 A2966 RMK A01 T02780068  RH  026%=      5-min Rain = 0
KAM2 250033Z 07005KT 28/07 A2966 RMK A01 T02780070  RH  027%=      5-min Rain = 0
KAM2 250034Z 08006KT 28/07 A2967 RMK A01 T02770069  RH  027%=      5-min Rain = 0
KAM2 250035Z 08006KT 28/07 A2967 RMK A01 T02750070  RH  027%=      5-min Rain = 0
KAM2 250036Z 10007KT 27/07 A2967 RMK A01 T02730071  RH  028%=      5-min Rain = 0
KAM2 250037Z 10007KT 27/07 A2968 RMK A01 T02720073  RH  028%=      5-min Rain = 0
KAM2 250038Z 09008KT 27/07 A2968 RMK A01 T02710072  RH  028%=      5-min Rain = 0
KAM2 250039Z 10009KT 27/07 A2968 RMK A01 T02710071  RH  028%=      5-min Rain = 0
KAM2 250040Z 10007KT 27/07 A2968 RMK A01 T02710070  RH  028%=      5-min Rain = 0
KAM2 250041Z 11007KT 27/07 A2968 RMK A01 T02710069  RH  028%=      5-min Rain = 0
KAM2 250042Z 10007KT 27/07 A2968 RMK A01 T02710069  RH  028%=      5-min Rain = 0
KAM2 250043Z 10007KT 27/07 A2968 RMK A01 T02720069  RH  028%=      5-min Rain = 0
KAM2 250044Z 10007KT 27/07 A2968 RMK A01 T02710068  RH  028%=      5-min Rain = 0
KAM2 250045Z 11007KT 27/07 A2968 RMK A01 T02710068  RH  027%=      5-min Rain = 0
KAM2 250046Z 10006KT 27/07 A2968 RMK A01 T02710067  RH  027%=      5-min Rain = 0
KAM2 250047Z 11005KT 27/07 A2968 RMK A01 T02710068  RH  028%=      5-min Rain = 0
KAM2 250048Z 11005KT 27/07 A2968 RMK A01 T02700068  RH  028%=      5-min Rain = 0
KAM2 250049Z 11006KT 27/07 A2968 RMK A01 T02690068  RH  028%=      5-min Rain = 0
KAM2 250050Z 12006KT 27/07 A2968 RMK A01 T02690068  RH  028%=      5-min Rain = 0
KAM2 250051Z 11006KT 27/07 A2968 RMK A01 T02690066  RH  028%=      5-min Rain = 0
KAM2 250052Z 12006KT 27/07 A2968 RMK A01 T02690067  RH  028%=      5-min Rain = 0
KAM2 250053Z 12006KT 27/07 A2968 RMK A01 T02680068  RH  028%=      5-min Rain = 0
KAM2 250054Z 12006KT 27/07 A2968 RMK A01 T02680066  RH  028%=      5-min Rain = 0
KAM2 250055Z 12006KT 27/07 A2968 RMK A01 T02680066  RH  028%=      5-min Rain = 0
KAM2 250056Z 12005KT 27/07 A2968 RMK A01 T02680066  RH  028%=      5-min Rain = 0
KAM2 250057Z 11006KT 27/07 A2968 RMK A01 T02670066  RH  028%=      5-min Rain = 0
KAM2 250058Z 10004KT 27/07 A2968 RMK A01 T02670068  RH  028%=      5-min Rain = 0
KAM2 250059Z 10005KT 27/07 A2968 RMK A01 T02660071  RH  029%=      5-min Rain = 0
KAM2 250100Z 10008KT 26/07 A2968 RMK A01 T02640071  RH  029%=      5-min Rain = 0
KAM2 250101Z 10008KT 26/07 A2968 RMK A01 T02620071  RH  030%=      5-min Rain = 0
KAM2 250102Z 10009KT 26/07 A2968 RMK A01 T02600072  RH  030%=      5-min Rain = 0
KAM2 250103Z 10007KT 26/07 A2968 RMK A01 T02600072  RH  030%=      5-min Rain = 0
KAM2 250104Z 10007KT 26/07 A2968 RMK A01 T02580072  RH  030%=      5-min Rain = 0
KAM2 250105Z 10007KT 26/07 A2968 RMK A01 T02570072  RH  031%=      5-min Rain = 0
KAM2 250106Z 11007KT 26/07 A2968 RMK A01 T02570072  RH  031%=      5-min Rain = 0
KAM2 250107Z 10007KT 26/07 A2968 RMK A01 T02560072  RH  031%=      5-min Rain = 0
KAM2 250108Z 10006KT 26/07 A2968 RMK A01 T02560072  RH  031%=      5-min Rain = 0
KAM2 250109Z 10006KT 26/07 A2968 RMK A01 T02550072  RH  031%=      5-min Rain = 0
KAM2 250110Z 11006KT 25/07 A2968 RMK A01 T02540073  RH  031%=      5-min Rain = 0
KAM2 250111Z 11007KT 25/07 A2968 RMK A01 T02530071  RH  031%=      5-min Rain = 0
KAM2 250112Z 11007KT 25/07 A2968 RMK A01 T02530070  RH  031%=      5-min Rain = 0
KAM2 250113Z 10008KT 25/07 A2968 RMK A01 T02520070  RH  031%=      5-min Rain = 0
KAM2 250114Z 10008KT 25/07 A2968 RMK A01 T02510070  RH  031%=      5-min Rain = 0
KAM2 250115Z 10008KT 25/07 A2968 RMK A01 T02510070  RH  032%=      5-min Rain = 0
KAM2 250116Z 10008KT 25/07 A2968 RMK A01 T02500070  RH  032%=      5-min Rain = 0
KAM2 250117Z 10009KT 25/07 A2968 RMK A01 T02500071  RH  032%=      5-min Rain = 0
KAM2 250118Z 09009KT 25/07 A2968 RMK A01 T02490070  RH  032%=      5-min Rain = 0
KAM2 250119Z 09008KT 25/07 A2968 RMK A01 T02490072  RH  032%=      5-min Rain = 0
KAM2 250120Z 09008KT 25/07 A2967 RMK A01 T02490070  RH  032%=      5-min Rain = 0
KAM2 250121Z 09008KT 25/07 A2967 RMK A01 T02490070  RH  032%=      5-min Rain = 0
KAM2 250122Z 09006KT 25/07 A2967 RMK A01 T02490071  RH  032%=      5-min Rain = 0
KAM2 250123Z 09006KT 25/07 A2967 RMK A01 T02480071  RH  032%=      5-min Rain = 0
KAM2 250124Z 09006KT 25/07 A2967 RMK A01 T02470069  RH  032%=      5-min Rain = 0
KAM2 250125Z 09007KT 25/07 A2967 RMK A01 T02460069  RH  032%=      5-min Rain = 0
KAM2 250126Z 09007KT 25/07 A2967 RMK A01 T02450068  RH  032%=      5-min Rain = 0
KAM2 250127Z 09007KT 24/07 A2967 RMK A01 T02440069  RH  032%=      5-min Rain = 0
KAM2 250128Z 09009KT 24/07 A2967 RMK A01 T02440067  RH  032%=      5-min Rain = 0
KAM2 250129Z 09009KT 24/07 A2967 RMK A01 T02440065  RH  032%=      5-min Rain = 0
KAM2 250130Z 08010G15KT 24/06 A2967 RMK A01 T02430064  RH  032%=      5-min Rain = 0
KAM2 250131Z 07014KT 24/06 A2967 RMK A01 T02430062  RH  031%=      5-min Rain = 0
KAM2 250132Z 08013KT 24/06 A2967 RMK A01 T02430064  RH  032%=      5-min Rain = 0
KAM2 250133Z 09010KT 24/07 A2967 RMK A01 T02410066  RH  032%=      5-min Rain = 0
KAM2 250134Z 08010KT 24/07 A2967 RMK A01 T02400068  RH  033%=      5-min Rain = 0
KAM2 250135Z 08012KT 24/07 A2967 RMK A01 T02370072  RH  035%=      5-min Rain = 0
KAM2 250136Z 08011KT 23/07 A2967 RMK A01 T02340073  RH  036%=      5-min Rain = 0
KAM2 250137Z 09009KT 23/08 A2966 RMK A01 T02320075  RH  036%=      5-min Rain = 0
KAM2 250138Z 08009KT 23/08 A2966 RMK A01 T02300076  RH  037%=      5-min Rain = 0
KAM2 250139Z 08009KT 23/08 A2966 RMK A01 T02290076  RH  037%=      5-min Rain = 0
KAM2 250140Z 08011KT 23/08 A2966 RMK A01 T02280075  RH  037%=      5-min Rain = 0
KAM2 250141Z 08011KT 23/08 A2966 RMK A01 T02270075  RH  038%=      5-min Rain = 0
KAM2 250142Z 09009G14KT 23/08 A2966 RMK A01 T02270076  RH  038%=      5-min Rain = 0
KAM2 250143Z 09008KT 23/08 A2966 RMK A01 T02260077  RH  038%=      5-min Rain = 0
KAM2 250144Z 08011KT 23/08 A2966 RMK A01 T02250077  RH  038%=      5-min Rain = 0
KAM2 250145Z 08011KT 23/08 A2966 RMK A01 T02250076  RH  038%=      5-min Rain = 0
KAM2 250146Z 08011KT 23/08 A2965 RMK A01 T02250076  RH  038%=      5-min Rain = 0
KAM2 250147Z 08011KT 23/08 A2966 RMK A01 T02250076  RH  038%=      5-min Rain = 0
KAM2 250148Z 08009KT 23/08 A2966 RMK A01 T02250075  RH  038%=      5-min Rain = 0
KAM2 250149Z 08009KT 23/08 A2966 RMK A01 T02250075  RH  038%=      5-min Rain = 0
KAM2 250150Z 10011KT 23/08 A2966 RMK A01 T02250076  RH  038%=      5-min Rain = 0
KAM2 250151Z 10011KT 23/08 A2966 RMK A01 T02250076  RH  038%=      5-min Rain = 0
KAM2 250152Z 10009KT 22/08 A2966 RMK A01 T02240075  RH  038%=      5-min Rain = 0
KAM2 250153Z 11009KT 23/08 A2966 RMK A01 T02250075  RH  038%=      5-min Rain = 0
KAM2 250154Z 10012KT 22/08 A2966 RMK A01 T02240075  RH  038%=      5-min Rain = 0
KAM2 250155Z 10010KT 22/07 A2966 RMK A01 T02230074  RH  038%=      5-min Rain = 0
KAM2 250156Z 10010KT 22/07 A2966 RMK A01 T02230074  RH  038%=      5-min Rain = 0
KAM2 250157Z 10010KT 22/07 A2966 RMK A01 T02230074  RH  038%=      5-min Rain = 0
KAM2 250158Z 10009KT 22/07 A2966 RMK A01 T02230073  RH  038%=      5-min Rain = 0
KAM2 250159Z 11007KT 22/07 A2966 RMK A01 T02230073  RH  038%=      5-min Rain = 0
KAM2 250200Z 10009KT 22/07 A2966 RMK A01 T02230073  RH  038%=      5-min Rain = 0
KAM2 250201Z 11010KT 22/07 A2966 RMK A01 T02220073  RH  038%=      5-min Rain = 0
KAM2 250202Z 10010KT 22/07 A2966 RMK A01 T02220073  RH  038%=      5-min Rain = 0
KAM2 250203Z 10012KT 22/07 A2966 RMK A01 T02220074  RH  038%=      5-min Rain = 0
KAM2 250204Z 10011KT 22/07 A2966 RMK A01 T02220074  RH  038%=      5-min Rain = 0
KAM2 250205Z 10010KT 22/07 A2966 RMK A01 T02220074  RH  038%=      5-min Rain = 0
KAM2 250206Z 10011KT 22/07 A2966 RMK A01 T02220074  RH  039%=      5-min Rain = 0
KAM2 250207Z 10010KT 22/08 A2966 RMK A01 T02210075  RH  039%=      5-min Rain = 0
KAM2 250208Z 10011KT 22/08 A2967 RMK A01 T02210075  RH  039%=      5-min Rain = 0
KAM2 250209Z 10011KT 22/08 A2967 RMK A01 T02210075  RH  039%=      5-min Rain = 0
KAM2 250210Z 10010KT 22/08 A2967 RMK A01 T02210075  RH  039%=      5-min Rain = 0
KAM2 250211Z 10011KT 22/08 A2967 RMK A01 T02210075  RH  039%=      5-min Rain = 0
KAM2 250212Z 10011KT 22/08 A2967 RMK A01 T02200076  RH  039%=      5-min Rain = 0
KAM2 250213Z 10011KT 22/08 A2967 RMK A01 T02200075  RH  039%=      5-min Rain = 0
KAM2 250214Z 10011KT 22/08 A2967 RMK A01 T02200075  RH  039%=      5-min Rain = 0
KAM2 250215Z 10012KT 22/08 A2968 RMK A01 T02200075  RH  039%=      5-min Rain = 0
KAM2 250216Z 11011KT 22/07 A2968 RMK A01 T02200074  RH  039%=      5-min Rain = 0
KAM2 250217Z 11011KT 22/07 A2968 RMK A01 T02200074  RH  039%=      5-min Rain = 0
KAM2 250218Z 11011KT 22/07 A2968 RMK A01 T02200074  RH  039%=      5-min Rain = 0
KAM2 250219Z 11011KT 22/07 A2968 RMK A01 T02200074  RH  039%=      5-min Rain = 0
KAM2 250220Z 11011G16KT 22/08 A2968 RMK A01 T02210075  RH  039%=      5-min Rain = 0
KAM2 250221Z 11010KT 22/08 A2968 RMK A01 T02200075  RH  039%=      5-min Rain = 0
KAM2 250222Z 11010KT 22/08 A2968 RMK A01 T02200075  RH  039%=      5-min Rain = 0
KAM2 250223Z 11011KT 22/07 A2968 RMK A01 T02200074  RH  039%=      5-min Rain = 0
KAM2 250224Z 11010KT 22/07 A2968 RMK A01 T02200074  RH  039%=      5-min Rain = 0
KAM2 250225Z 11010KT 22/08 A2968 RMK A01 T02200075  RH  039%=      5-min Rain = 0
KAM2 250226Z 11011KT 22/08 A2969 RMK A01 T02200075  RH  039%=      5-min Rain = 0
KAM2 250227Z 12014KT 22/08 A2969 RMK A01 T02190075  RH  039%=      5-min Rain = 0
KAM2 250228Z 12014KT 22/07 A2969 RMK A01 T02190074  RH  039%=      5-min Rain = 0
KAM2 250229Z 13014KT 22/07 A297 RMK A01 T02200074  RH  039%=      5-min Rain = 0
KAM2 250230Z 12013KT 22/08 A297 RMK A01 T02200077  RH  040%=      5-min Rain = 0
KAM2 250231Z 13011KT 22/08 A297 RMK A01 T02200079  RH  040%=      5-min Rain = 0
KAM2 250232Z 13013KT 22/08 A297 RMK A01 T02190080  RH  041%=      5-min Rain = 0
KAM2 250233Z 13017G23KT 22/08 A297 RMK A01 T02190081  RH  041%=      5-min Rain = 0
KAM2 250234Z 14018G24KT 22/08 A2971 RMK A01 T02190082  RH  041%=      5-min Rain = 0
KAM2 250235Z 14017KT 22/08 A297 RMK A01 T02180083  RH  042%=      5-min Rain = 0
KAM2 250236Z 15013KT 22/08 A297 RMK A01 T02180084  RH  042%=      5-min Rain = 0
KAM2 250237Z 13013KT 22/09 A297 RMK A01 T02160085  RH  043%=      5-min Rain = 0
KAM2 250238Z 13012KT 22/09 A297 RMK A01 T02150085  RH  043%=      5-min Rain = 0
KAM2 250239Z 14011G18KT 21/09 A297 RMK A01 T02140086  RH  044%=      5-min Rain = 0
KAM2 250240Z 15015KT 21/09 A297 RMK A01 T02140085  RH  044%=      5-min Rain = 0
KAM2 250241Z 14015KT 21/09 A2969 RMK A01 T02140085  RH  044%=      5-min Rain = 0
KAM2 250242Z 15018G23KT 21/08 A2969 RMK A01 T02130084  RH  043%=      5-min Rain = 0
KAM2 250243Z 15015KT 21/08 A2969 RMK A01 T02130083  RH  043%=      5-min Rain = 0
KAM2 250244Z 15013KT 21/08 A2969 RMK A01 T02120082  RH  043%=      5-min Rain = 0
KAM2 250245Z 14016KT 21/08 A2969 RMK A01 T02120081  RH  043%=      5-min Rain = 0
KAM2 250246Z 15012KT 21/08 A2969 RMK A01 T02120080  RH  043%=      5-min Rain = 0
KAM2 250247Z 14015KT 21/08 A297 RMK A01 T02120080  RH  043%=      5-min Rain = 0
KAM2 250248Z 14015KT 21/08 A297 RMK A01 T02120079  RH  042%=      5-min Rain = 0
KAM2 250249Z 14013KT 21/08 A297 RMK A01 T02120079  RH  042%=      5-min Rain = 0
KAM2 250250Z 14013KT 21/08 A297 RMK A01 T02120078  RH  042%=      5-min Rain = 0
KAM2 250251Z 14013KT 21/08 A297 RMK A01 T02120078  RH  042%=      5-min Rain = 0
KAM2 250252Z 14012KT 21/08 A297 RMK A01 T02130078  RH  042%=      5-min Rain = 0
KAM2 250253Z 14013KT 21/08 A2971 RMK A01 T02130078  RH  042%=      5-min Rain = 0
KAM2 250254Z 14013KT 21/08 A2971 RMK A01 T02140078  RH  042%=      5-min Rain = 0
KAM2 250255Z 13013KT 22/08 A2971 RMK A01 T02150078  RH  041%=      5-min Rain = 0
KAM2 250256Z 14013KT 22/08 A2971 RMK A01 T02150078  RH  041%=      5-min Rain = 0
KAM2 250257Z 13012KT 22/08 A2971 RMK A01 T02160077  RH  041%=      5-min Rain = 0
KAM2 250258Z 14012KT 22/08 A2971 RMK A01 T02150077  RH  041%=      5-min Rain = 0
KAM2 250259Z 14011KT 22/08 A2971 RMK A01 T02160077  RH  041%=      5-min Rain = 0
KAM2 250300Z 13014KT 22/08 A2971 RMK A01 T02150076  RH  041%=      5-min Rain = 0
KAM2 250301Z 14014G19KT 22/08 A2971 RMK A01 T02160076  RH  041%=      5-min Rain = 0
KAM2 250302Z 14015KT 22/08 A297 RMK A01 T02160075  RH  040%=      5-min Rain = 0
KAM2 250303Z 14014KT 22/08 A2971 RMK A01 T02160075  RH  040%=      5-min Rain = 0
KAM2 250304Z 13015KT 22/08 A297 RMK A01 T02160075  RH  040%=      5-min Rain = 0
KAM2 250305Z 14014KT 22/08 A297 RMK A01 T02160075  RH  040%=      5-min Rain = 0
KAM2 250306Z 14016KT 22/08 A297 RMK A01 T02150075  RH  040%=      5-min Rain = 0
KAM2 250307Z 13016KT 21/08 A297 RMK A01 T02140075  RH  041%=      5-min Rain = 0
KAM2 250308Z 14017KT 21/08 A2969 RMK A01 T02130075  RH  041%=      5-min Rain = 0
KAM2 250309Z 14016KT 21/08 A2969 RMK A01 T02120075  RH  041%=      5-min Rain = 0
KAM2 250310Z 14015KT 21/08 A2969 RMK A01 T02110075  RH  041%=      5-min Rain = 0
KAM2 250311Z 14014KT 21/07 A2969 RMK A01 T02100074  RH  041%=      5-min Rain = 0
KAM2 250312Z 14014KT 21/07 A2969 RMK A01 T02090074  RH  042%=      5-min Rain = 0
KAM2 250313Z 14013G18KT 21/07 A2969 RMK A01 T02090074  RH  042%=      5-min Rain = 0
KAM2 250314Z 14013KT 21/07 A2969 RMK A01 T02080074  RH  042%=      5-min Rain = 0
KAM2 250315Z 14014KT 21/07 A2969 RMK A01 T02070074  RH  042%=      5-min Rain = 0
KAM2 250316Z 14014KT 21/07 A2969 RMK A01 T02070074  RH  042%=      5-min Rain = 0
KAM2 250317Z 13014G19KT 21/07 A2969 RMK A01 T02070074  RH  042%=      5-min Rain = 0
KAM2 250318Z 13015KT 21/07 A297 RMK A01 T02060074  RH  042%=      5-min Rain = 0
KAM2 250319Z 13014KT 21/07 A297 RMK A01 T02060074  RH  042%=      5-min Rain = 0
KAM2 250320Z 13013KT 21/07 A297 RMK A01 T02060074  RH  042%=      5-min Rain = 0
KAM2 250321Z 13012KT 21/08 A2971 RMK A01 T02060075  RH  043%=      5-min Rain = 0
KAM2 250322Z 13011KT 21/08 A2971 RMK A01 T02050075  RH  043%=      5-min Rain = 0
KAM2 250323Z 13011KT 21/08 A2971 RMK A01 T02050075  RH  043%=      5-min Rain = 0
KAM2 250324Z 13013KT 20/08 A2972 RMK A01 T02040075  RH  043%=      5-min Rain = 0
KAM2 250325Z 14011KT 20/07 A2972 RMK A01 T02040074  RH  043%=      5-min Rain = 0
KAM2 250326Z 13011KT 20/07 A2972 RMK A01 T02040074  RH  043%=      5-min Rain = 0
KAM2 250327Z 13011KT 20/07 A2972 RMK A01 T02030074  RH  043%=      5-min Rain = 0
KAM2 250328Z 12011KT 20/07 A2972 RMK A01 T02040074  RH  043%=      5-min Rain = 0
KAM2 250329Z 13014KT 20/07 A2972 RMK A01 T02040074  RH  043%=      5-min Rain = 0
KAM2 250330Z 13012KT 20/07 A2972 RMK A01 T02040074  RH  043%=      5-min Rain = 0
KAM2 250331Z 13012KT 20/08 A2972 RMK A01 T02040075  RH  043%=      5-min Rain = 0
KAM2 250332Z 13010KT 20/08 A2972 RMK A01 T02030075  RH  043%=      5-min Rain = 0
KAM2 250333Z 13008KT 20/08 A2972 RMK A01 T02030075  RH  043%=      5-min Rain = 0
KAM2 250334Z 12010KT 20/08 A2972 RMK A01 T02030075  RH  043%=      5-min Rain = 0
KAM2 250335Z 11011KT 20/07 A2972 RMK A01 T02030074  RH  043%=      5-min Rain = 0
KAM2 250336Z 12010KT 20/07 A2972 RMK A01 T02040072  RH  043%=      5-min Rain = 0
KAM2 250337Z 12012KT 20/07 A2972 RMK A01 T02040073  RH  042%=      5-min Rain = 0
KAM2 250338Z 12012KT 20/07 A2972 RMK A01 T02040074  RH  043%=      5-min Rain = 0
KAM2 250339Z 12013KT 21/08 A2972 RMK A01 T02050075  RH  043%=      5-min Rain = 0
KAM2 250340Z 12015KT 20/08 A2972 RMK A01 T02040075  RH  043%=      5-min Rain = 0
KAM2 250341Z 12013KT 20/08 A2972 RMK A01 T02040076  RH  044%=      5-min Rain = 0
KAM2 250342Z 11013KT 20/08 A2972 RMK A01 T02020077  RH  044%=      5-min Rain = 0
KAM2 250343Z 12013KT 20/08 A2972 RMK A01 T02010078  RH  045%=      5-min Rain = 0
KAM2 250344Z 12012KT 20/08 A2972 RMK A01 T02000079  RH  045%=      5-min Rain = 0
KAM2 250345Z 12014KT 20/08 A2972 RMK A01 T01990079  RH  046%=      5-min Rain = 0
KAM2 250346Z 12014KT 20/08 A2972 RMK A01 T01990079  RH  046%=      5-min Rain = 0
KAM2 250347Z 12012KT 20/08 A2972 RMK A01 T01990080  RH  046%=      5-min Rain = 0
KAM2 250348Z 12013KT 20/08 A2972 RMK A01 T01990079  RH  046%=      5-min Rain = 0
KAM2 250349Z 11013KT 20/08 A2972 RMK A01 T01990079  RH  046%=      5-min Rain = 0
KAM2 250350Z 12011KT 20/08 A2972 RMK A01 T02000079  RH  046%=      5-min Rain = 0
KAM2 250351Z 12011KT 20/08 A2972 RMK A01 T02000078  RH  045%=      5-min Rain = 0
KAM2 250352Z 11011KT 20/08 A2972 RMK A01 T02000078  RH  045%=      5-min Rain = 0
KAM2 250353Z 11012KT 20/08 A2972 RMK A01 T02000077  RH  045%=      5-min Rain = 0
KAM2 250354Z 11011KT 20/08 A2972 RMK A01 T02000078  RH  045%=      5-min Rain = 0
KAM2 250355Z 11012KT 20/08 A2972 RMK A01 T02000077  RH  045%=      5-min Rain = 0
KAM2 250356Z 12014KT 20/08 A2972 RMK A01 T02000077  RH  045%=      5-min Rain = 0
KAM2 250357Z 11012KT 20/08 A2972 RMK A01 T02020078  RH  045%=      5-min Rain = 0
KAM2 250358Z 10011KT 20/08 A2971 RMK A01 T02020078  RH  045%=      5-min Rain = 0
KAM2 250359Z 11011KT 20/08 A2971 RMK A01 T02020078  RH  045%=      5-min Rain = 0
KAM2 250400Z 11013KT 20/08 A2972 RMK A01 T02020078  RH  045%=      5-min Rain = 0
KAM2 250401Z 11011G16KT 20/08 A2971 RMK A01 T02030079  RH  045%=      5-min Rain = 0
KAM2 250402Z 11013KT 20/08 A2972 RMK A01 T02030079  RH  045%=      5-min Rain = 0
KAM2 250403Z 11012KT 20/08 A2972 RMK A01 T02030079  RH  045%=      5-min Rain = 0
KAM2 250404Z 11014KT 20/08 A2972 RMK A01 T02030079  RH  045%=      5-min Rain = 0
KAM2 250405Z 10014KT 20/08 A2972 RMK A01 T02030079  RH  045%=      5-min Rain = 0
KAM2 250406Z 11015KT 20/08 A2972 RMK A01 T02030079  RH  045%=      5-min Rain = 0
KAM2 250407Z 11013KT 20/08 A2972 RMK A01 T02030080  RH  045%=      5-min Rain = 0
KAM2 250408Z 11014G20KT 20/08 A2972 RMK A01 T02030081  RH  045%=      5-min Rain = 0
KAM2 250409Z 11017G23KT 20/08 A2972 RMK A01 T02030084  RH  046%=      5-min Rain = 0
KAM2 250410Z 11016G21KT 20/09 A2972 RMK A01 T02020086  RH  047%=      5-min Rain = 0
KAM2 250411Z 11017G22KT 20/09 A2973 RMK A01 T02020088  RH  048%=      5-min Rain = 0
KAM2 250412Z 11021G27KT 20/09 A2973 RMK A01 T02000090  RH  049%=      5-min Rain = 0
KAM2 250413Z 11017KT 20/09 A2972 RMK A01 T01990092  RH  050%=      5-min Rain = 0
KAM2 250414Z 11016G21KT 20/09 A2973 RMK A01 T01970093  RH  051%=      5-min Rain = 0
KAM2 250415Z 12020G25KT 20/10 A2973 RMK A01 T01960095  RH  052%=      5-min Rain = 0
KAM2 250416Z 11018KT 20/10 A2973 RMK A01 T01950096  RH  053%=      5-min Rain = 0
KAM2 250417Z 11019G25KT 19/10 A2973 RMK A01 T01930098  RH  054%=      5-min Rain = 0
KAM2 250418Z 11023G30KT 19/10 A2973 RMK A01 T01910101  RH  056%=      5-min Rain = 0
KAM2 250419Z 12020G26KT 19/10 A2973 RMK A01 T01880102  RH  057%=      5-min Rain = 0
KAM2 250420Z 11026G31KT 19/10 A2973 RMK A01 T01860102  RH  058%=      5-min Rain = 0
KAM2 250421Z 11022KT 18/10 A2973 RMK A01 T01840102  RH  059%=      5-min Rain = 0
KAM2 250422Z 11016G23KT 18/10 A2973 RMK A01 T01830102  RH  059%=      5-min Rain = 0
KAM2 250423Z 11019G25KT 18/10 A2973 RMK A01 T01820103  RH  060%=      5-min Rain = 0
KAM2 250424Z 11022KT 18/10 A2973 RMK A01 T01800102  RH  060%=      5-min Rain = 0
KAM2 250425Z 11018G24KT 18/10 A2973 RMK A01 T01790102  RH  061%=      5-min Rain = 0
KAM2 250426Z 11019KT 18/10 A2973 RMK A01 T01780102  RH  061%=      5-min Rain = 0
KAM2 250427Z 11020KT 18/10 A2974 RMK A01 T01780102  RH  061%=      5-min Rain = 0
KAM2 250428Z 11022KT 18/10 A2974 RMK A01 T01780101  RH  061%=      5-min Rain = 0
KAM2 250429Z 11022G28KT 18/10 A2974 RMK A01 T01770100  RH  061%=      5-min Rain = 0
KAM2 250430Z 11020KT 18/10 A2974 RMK A01 T01770099  RH  060%=      5-min Rain = 0
KAM2 250431Z 11020G25KT 18/10 A2974 RMK A01 T01770099  RH  060%=      5-min Rain = 0
KAM2 250432Z 11022G27KT 18/10 A2974 RMK A01 T01760097  RH  060%=      5-min Rain = 0
KAM2 250433Z 11021G26KT 18/10 A2974 RMK A01 T01760097  RH  060%=      5-min Rain = 0
KAM2 250434Z 11021G26KT 18/10 A2974 RMK A01 T01750097  RH  060%=      5-min Rain = 0
KAM2 250435Z 11023G28KT 18/10 A2974 RMK A01 T01750097  RH  060%=      5-min Rain = 0
KAM2 250436Z 11019KT 18/10 A2974 RMK A01 T01750097  RH  060%=      5-min Rain = 0
KAM2 250437Z 12021G29KT 18/10 A2974 RMK A01 T01750097  RH  060%=      5-min Rain = 0
KAM2 250438Z 11023KT 18/10 A2974 RMK A01 T01750097  RH  060%=      5-min Rain = 0
KAM2 250439Z 11021G27KT 17/10 A2974 RMK A01 T01740097  RH  060%=      5-min Rain = 0
KAM2 250440Z 12022G29KT 17/10 A2974 RMK A01 T01740097  RH  061%=      5-min Rain = 0
KAM2 250441Z 11022G29KT 17/10 A2975 RMK A01 T01740097  RH  061%=      5-min Rain = 0
KAM2 250442Z 12023G28KT 17/10 A2975 RMK A01 T01730098  RH  061%=      5-min Rain = 0
KAM2 250443Z 12021G27KT 17/10 A2975 RMK A01 T01730098  RH  061%=      5-min Rain = 0
KAM2 250444Z 11019KT 17/10 A2975 RMK A01 T01720098  RH  061%=      5-min Rain = 0
KAM2 250445Z 11017G22KT 17/10 A2975 RMK A01 T01720098  RH  062%=      5-min Rain = 0
KAM2 250446Z 11018G26KT 17/10 A2975 RMK A01 T01720098  RH  062%=      5-min Rain = 0
KAM2 250447Z 11017KT 17/10 A2975 RMK A01 T01710097  RH  062%=      5-min Rain = 0
KAM2 250448Z 11019G25KT 17/10 A2975 RMK A01 T01710097  RH  062%=      5-min Rain = 0
KAM2 250449Z 11019KT 17/10 A2975 RMK A01 T01710097  RH  062%=      5-min Rain = 0
KAM2 250450Z 11018KT 17/10 A2975 RMK A01 T01710097  RH  062%=      5-min Rain = 0
KAM2 250451Z 11020G25KT 17/10 A2975 RMK A01 T01710096  RH  061%=      5-min Rain = 0
KAM2 250452Z 11020KT 17/10 A2975 RMK A01 T01710096  RH  061%=      5-min Rain = 0
KAM2 250453Z 11018KT 17/10 A2976 RMK A01 T01710096  RH  061%=      5-min Rain = 0
KAM2 250454Z 11020G29KT 17/10 A2976 RMK A01 T01710096  RH  061%=      5-min Rain = 0
KAM2 250455Z 11019G25KT 17/10 A2976 RMK A01 T01710096  RH  061%=      5-min Rain = 0
KAM2 250456Z 10018KT 17/10 A2976 RMK A01 T01710097  RH  062%=      5-min Rain = 0
KAM2 250457Z 10019G24KT 17/10 A2976 RMK A01 T01700097  RH  062%=      5-min Rain = 0
KAM2 250458Z 10016G22KT 17/10 A2976 RMK A01 T01700097  RH  062%=      5-min Rain = 0
KAM2 250459Z 11016KT 17/10 A2976 RMK A01 T01700098  RH  062%=      5-min Rain = 0

Page generated in 0.1962 seconds.